Wetterdaten: Mittwoch, 17.10.2018
Datum Zeit Temp. Aussen Temp. o. S. +5cm Feuchte Auss Luftdruck Regen Sonnenschein Regendauer Solar Windben Empfang
17.10.2018 00:00 14,2 C 15,0 C 13,3 C 85 % 1016,6 hPa 0,0 l/m 0 min 0 min 0 W/m 6,4 km/h (2 Bft) 95,74 %
17.10.2018 00:02 14,2 C 15,0 C 13,3 C 85 % 1016,6 hPa 0,0 l/m 0 min 0 min 0 W/m 6,4 km/h (2 Bft) 88,89 %
17.10.2018 00:04 14,3 C 15,0 C 13,3 C 85 % 1016,6 hPa 0,0 l/m 0 min 0 min 0 W/m 3,2 km/h (1 Bft) 95,65 %
17.10.2018 00:08 14,4 C 15,0 C 13,3 C 85 % 1016,6 hPa 0,0 l/m 0 min 0 min 0 W/m 6,4 km/h (2 Bft) 96,43 %
17.10.2018 00:10 14,4 C 15,0 C 13,3 C 85 % 1016,6 hPa 0,0 l/m 0 min 0 min 0 W/m 3,2 km/h (1 Bft) 95,74 %
17.10.2018 00:12 14,5 C 15,0 C 13,3 C 84 % 1016,5 hPa 0,0 l/m 0 min 0 min 0 W/m 9,7 km/h (2 Bft) 95,74 %
17.10.2018 00:14 14,5 C 15,0 C 13,3 C 84 % 1016,6 hPa 0,0 l/m 0 min 0 min 0 W/m 6,4 km/h (2 Bft) 97,87 %
17.10.2018 00:16 14,6 C 15,0 C 13,3 C 84 % 1016,6 hPa 0,0 l/m 0 min 0 min 0 W/m 6,4 km/h (2 Bft) 95,74 %
17.10.2018 00:18 14,7 C 15,0 C 13,3 C 84 % 1016,5 hPa 0,0 l/m 0 min 0 min 0 W/m 6,4 km/h (2 Bft) 95,74 %
17.10.2018 00:20 14,7 C 15,0 C 13,3 C 84 % 1016,6 hPa 0,0 l/m 0 min 0 min 0 W/m 12,9 km/h (3 Bft) 96,55 %
17.10.2018 00:22 14,7 C 15,0 C 13,3 C 84 % 1016,6 hPa 0,0 l/m 0 min 0 min 0 W/m 3,2 km/h (1 Bft) 100,00 %
17.10.2018 00:24 14,8 C 15,0 C 13,3 C 84 % 1016,6 hPa 0,0 l/m 0 min 0 min 0 W/m 6,4 km/h (2 Bft) 96,67 %
17.10.2018 00:26 14,8 C 15,0 C 13,3 C 84 % 1016,5 hPa 0,0 l/m 0 min 0 min 0 W/m 6,4 km/h (2 Bft) 97,87 %
17.10.2018 00:28 14,8 C 15,0 C 13,3 C 84 % 1016,5 hPa 0,0 l/m 0 min 0 min 0 W/m 6,4 km/h (2 Bft) 95,74 %
17.10.2018 00:30 14,9 C 15,0 C 13,3 C 83 % 1016,5 hPa 0,0 l/m 0 min 0 min 0 W/m 9,7 km/h (2 Bft) 97,83 %
17.10.2018 00:32 14,9 C 15,0 C 13,3 C 83 % 1016,5 hPa 0,0 l/m 0 min 0 min 0 W/m 9,7 km/h (2 Bft) 98,00 %
17.10.2018 00:34 14,9 C 14,4 C 13,3 C 83 % 1016,5 hPa 0,0 l/m 0 min 0 min 0 W/m 3,2 km/h (1 Bft) 97,87 %
17.10.2018 00:38 15,0 C 14,4 C 13,3 C 83 % 1016,5 hPa 0,0 l/m 0 min 0 min 0 W/m 6,4 km/h (2 Bft) 96,84 %
17.10.2018 00:40 15,0 C 14,4 C 13,3 C 83 % 1016,5 hPa 0,0 l/m 0 min 0 min 0 W/m 3,2 km/h (1 Bft) 97,83 %
17.10.2018 00:42 15,0 C 14,4 C 13,3 C 83 % 1016,5 hPa 0,0 l/m 0 min 0 min 0 W/m 6,4 km/h (2 Bft) 97,87 %
17.10.2018 00:44 15,0 C 14,4 C 13,3 C 83 % 1016,5 hPa 0,0 l/m 0 min 0 min 0 W/m 3,2 km/h (1 Bft) 97,87 %
17.10.2018 00:46 15,1 C 14,4 C 13,3 C 83 % 1016,5 hPa 0,0 l/m 0 min 0 min 0 W/m 6,4 km/h (2 Bft) 97,96 %
17.10.2018 00:48 15,1 C 14,4 C 13,3 C 83 % 1016,4 hPa 0,0 l/m 0 min 0 min 0 W/m 6,4 km/h (2 Bft) 95,74 %
17.10.2018 00:50 15,1 C 14,4 C 13,3 C 83 % 1016,5 hPa 0,0 l/m 0 min 0 min 0 W/m 6,4 km/h (2 Bft) 97,87 %
17.10.2018 00:52 15,1 C 14,4 C 13,3 C 83 % 1016,4 hPa 0,0 l/m 0 min 0 min 0 W/m 6,4 km/h (2 Bft) 97,83 %
17.10.2018 00:54 15,1 C 14,4 C 13,3 C 83 % 1016,4 hPa 0,0 l/m 0 min 0 min 0 W/m 6,4 km/h (2 Bft) 100,00 %
17.10.2018 00:56 15,1 C 14,4 C 13,3 C 83 % 1016,4 hPa 0,0 l/m 0 min 0 min 0 W/m 3,2 km/h (1 Bft) 97,87 %
17.10.2018 00:58 15,1 C 14,4 C 13,3 C 83 % 1016,4 hPa 0,0 l/m 0 min 0 min 0 W/m 9,7 km/h (2 Bft) 100,00 %
17.10.2018 01:00 15,1 C 14,4 C 13,3 C 83 % 1016,4 hPa 0,0 l/m 0 min 0 min 0 W/m 6,4 km/h (2 Bft) 97,87 %
17.10.2018 01:02 15,1 C 14,4 C 13,3 C 83 % 1016,4 hPa 0,0 l/m 0 min 0 min 0 W/m 9,7 km/h (2 Bft) 100,00 %
17.10.2018 01:04 15,1 C 14,4 C 13,3 C 83 % 1016,4 hPa 0,0 l/m 0 min 0 min 0 W/m 9,7 km/h (2 Bft) 100,00 %
17.10.2018 01:08 15,1 C 14,4 C 13,3 C 83 % 1016,3 hPa 0,0 l/m 0 min 0 min 0 W/m 6,4 km/h (2 Bft) 98,94 %
17.10.2018 01:10 15,1 C 14,4 C 13,3 C 83 % 1016,4 hPa 0,0 l/m 0 min 0 min 0 W/m 6,4 km/h (2 Bft) 100,00 %
17.10.2018 01:12 15,1 C 14,4 C 13,3 C 83 % 1016,4 hPa 0,0 l/m 0 min 0 min 0 W/m 6,4 km/h (2 Bft) 100,00 %
17.10.2018 01:14 15,1 C 14,4 C 13,3 C 83 % 1016,3 hPa 0,0 l/m 0 min 0 min 0 W/m 9,7 km/h (2 Bft) 100,00 %
17.10.2018 01:16 15,0 C 14,4 C 13,3 C 83 % 1016,3 hPa 0,0 l/m 0 min 0 min 0 W/m 3,2 km/h (1 Bft) 100,00 %
17.10.2018 01:18 15,0 C 14,4 C 13,3 C 83 % 1016,4 hPa 0,0 l/m 0 min 0 min 0 W/m 3,2 km/h (1 Bft) 100,00 %
17.10.2018 01:20 15,1 C 14,4 C 13,3 C 83 % 1016,4 hPa 0,0 l/m 0 min 0 min 0 W/m 3,2 km/h (1 Bft) 100,00 %
17.10.2018 01:22 15,0 C 14,4 C 13,3 C 83 % 1016,3 hPa 0,0 l/m 0 min 0 min 0 W/m 9,7 km/h (2 Bft) 100,00 %
17.10.2018 01:24 15,0 C 14,4 C 13,3 C 83 % 1016,3 hPa 0,0 l/m 0 min 0 min 0 W/m 9,7 km/h (2 Bft) 100,00 %
17.10.2018 01:26 15,0 C 14,4 C 13,3 C 83 % 1016,3 hPa 0,0 l/m 0 min 0 min 0 W/m 6,4 km/h (2 Bft) 100,00 %
17.10.2018 01:28 15,0 C 14,4 C 13,3 C 83 % 1016,3 hPa 0,0 l/m 0 min 0 min 0 W/m 6,4 km/h (2 Bft) 100,00 %
17.10.2018 01:30 15,0 C 14,4 C 13,3 C 83 % 1016,3 hPa 0,0 l/m 0 min 0 min 0 W/m 6,4 km/h (2 Bft) 100,00 %
17.10.2018 01:32 15,0 C 14,4 C 13,3 C 83 % 1016,2 hPa 0,0 l/m 0 min 0 min 0 W/m 3,2 km/h (1 Bft) 100,00 %
17.10.2018 01:34 15,0 C 14,4 C 13,3 C 83 % 1016,2 hPa 0,0 l/m 0 min 0 min 0 W/m 3,2 km/h (1 Bft) 100,00 %
17.10.2018 01:38 15,0 C 14,4 C 13,3 C 83 % 1016,2 hPa 0,0 l/m 0 min 0 min 0 W/m 6,4 km/h (2 Bft) 100,00 %
17.10.2018 01:40 15,0 C 14,4 C 13,3 C 83 % 1016,3 hPa 0,0 l/m 0 min 0 min 0 W/m 6,4 km/h (2 Bft) 100,00 %
17.10.2018 01:42 14,9 C 14,4 C 13,3 C 83 % 1016,2 hPa 0,0 l/m 0 min 0 min 0 W/m 6,4 km/h (2 Bft) 97,87 %
17.10.2018 01:44 14,9 C 14,4 C 13,3 C 83 % 1016,2 hPa 0,0 l/m 0 min 0 min 0 W/m 9,7 km/h (2 Bft) 100,00 %
17.10.2018 01:46 14,9 C 14,4 C 13,3 C 83 % 1016,2 hPa 0,0 l/m 0 min 0 min 0 W/m 9,7 km/h (2 Bft) 100,00 %
17.10.2018 01:48 14,9 C 14,4 C 13,3 C 83 % 1016,2 hPa 0,0 l/m 0 min 0 min 0 W/m 9,7 km/h (2 Bft) 100,00 %
17.10.2018 01:50 14,9 C 14,4 C 13,3 C 83 % 1016,1 hPa 0,0 l/m 0 min 0 min 0 W/m 12,9 km/h (3 Bft) 100,00 %
17.10.2018 01:52 14,9 C 14,4 C 13,3 C 83 % 1016,2 hPa 0,0 l/m 0 min 0 min 0 W/m 9,7 km/h (2 Bft) 100,00 %
17.10.2018 01:54 14,9 C 14,4 C 13,3 C 83 % 1016,2 hPa 0,0 l/m 0 min 0 min 0 W/m 9,7 km/h (2 Bft) 97,87 %
17.10.2018 01:56 14,9 C 14,4 C 13,3 C 83 % 1016,2 hPa 0,0 l/m 0 min 0 min 0 W/m 6,4 km/h (2 Bft) 100,00 %
17.10.2018 01:58 14,9 C 14,4 C 13,3 C 83 % 1016,2 hPa 0,0 l/m 0 min 0 min 0 W/m 3,2 km/h (1 Bft) 100,00 %
17.10.2018 02:00 14,9 C 14,4 C 13,3 C 83 % 1016,3 hPa 0,0 l/m 0 min 0 min 0 W/m 3,2 km/h (1 Bft) 100,00 %
17.10.2018 02:02 14,9 C 14,4 C 13,3 C 83 % 1016,2 hPa 0,0 l/m 0 min 0 min 0 W/m 6,4 km/h (2 Bft) 97,83 %
17.10.2018 02:04 14,9 C 13,9 C 13,3 C 83 % 1016,2 hPa 0,0 l/m 0 min 0 min 0 W/m 6,4 km/h (2 Bft) 100,00 %
17.10.2018 02:08 14,9 C 13,9 C 13,3 C 83 % 1016,2 hPa 0,0 l/m 0 min 0 min 0 W/m 12,9 km/h (3 Bft) 97,59 %
17.10.2018 02:10 14,9 C 13,9 C 13,3 C 83 % 1016,2 hPa 0,0 l/m 0 min 0 min 0 W/m 6,4 km/h (2 Bft) 97,87 %
17.10.2018 02:12 14,9 C 13,9 C 13,3 C 83 % 1016,2 hPa 0,0 l/m 0 min 0 min 0 W/m 9,7 km/h (2 Bft) 93,62 %
17.10.2018 02:14 14,9 C 13,9 C 13,3 C 84 % 1016,2 hPa 0,0 l/m 0 min 0 min 0 W/m 9,7 km/h (2 Bft) 97,87 %
17.10.2018 02:16 14,9 C 13,9 C 13,3 C 84 % 1016,2 hPa 0,0 l/m 0 min 0 min 0 W/m 9,7 km/h (2 Bft) 98,00 %
17.10.2018 02:18 14,9 C 13,9 C 13,3 C 84 % 1016,2 hPa 0,0 l/m 0 min 0 min 0 W/m 6,4 km/h (2 Bft) 100,00 %
17.10.2018 02:20 14,9 C 13,9 C 13,3 C 84 % 1016,1 hPa 0,0 l/m 0 min 0 min 0 W/m 6,4 km/h (2 Bft) 97,87 %
17.10.2018 02:22 14,8 C 13,9 C 13,3 C 84 % 1016,1 hPa 0,0 l/m 0 min 0 min 0 W/m 6,4 km/h (2 Bft) 97,87 %
17.10.2018 02:24 14,8 C 13,9 C 13,3 C 84 % 1016,1 hPa 0,0 l/m 0 min 0 min 0 W/m 9,7 km/h (2 Bft) 97,87 %
17.10.2018 02:26 14,8 C 13,9 C 13,3 C 84 % 1016,1 hPa 0,0 l/m 0 min 0 min 0 W/m 16,1 km/h (3 Bft) 93,48 %
17.10.2018 02:28 14,8 C 13,9 C 13,3 C 84 % 1016,1 hPa 0,0 l/m 0 min 0 min 0 W/m 12,9 km/h (3 Bft) 93,62 %
17.10.2018 02:30 14,8 C 13,9 C 13,3 C 84 % 1016,1 hPa 0,0 l/m 0 min 0 min 0 W/m 9,7 km/h (2 Bft) 95,74 %
17.10.2018 02:32 14,8 C 13,9 C 13,3 C 84 % 1016,1 hPa 0,0 l/m 0 min 0 min 0 W/m 6,4 km/h (2 Bft) 95,74 %
17.10.2018 02:34 14,8 C 13,9 C 13,3 C 84 % 1016,1 hPa 0,0 l/m 0 min 0 min 0 W/m 6,4 km/h (2 Bft) 95,74 %
17.10.2018 02:38 14,8 C 13,9 C 13,3 C 84 % 1016,1 hPa 0,0 l/m 0 min 0 min 0 W/m 9,7 km/h (2 Bft) 94,68 %
17.10.2018 02:40 14,8 C 13,9 C 13,3 C 84 % 1016,1 hPa 0,0 l/m 0 min 0 min 0 W/m 9,7 km/h (2 Bft) 95,74 %
17.10.2018 02:42 14,7 C 13,9 C 13,3 C 84 % 1016,0 hPa 0,0 l/m 0 min 0 min 0 W/m 6,4 km/h (2 Bft) 95,74 %
17.10.2018 02:44 14,7 C 13,9 C 13,3 C 85 % 1016,1 hPa 0,0 l/m 0 min 0 min 0 W/m 12,9 km/h (3 Bft) 93,62 %
17.10.2018 02:46 14,7 C 13,9 C 13,3 C 85 % 1016,1 hPa 0,0 l/m 0 min 0 min 0 W/m 9,7 km/h (2 Bft) 95,12 %
17.10.2018 02:48 14,7 C 13,9 C 13,3 C 84 % 1016,1 hPa 0,0 l/m 0 min 0 min 0 W/m 12,9 km/h (3 Bft) 94,34 %
17.10.2018 02:50 14,7 C 13,9 C 13,3 C 84 % 1016,0 hPa 0,0 l/m 0 min 0 min 0 W/m 6,4 km/h (2 Bft) 93,48 %
17.10.2018 02:52 14,7 C 13,9 C 13,3 C 85 % 1016,1 hPa 0,0 l/m 0 min 0 min 0 W/m 6,4 km/h (2 Bft) 95,83 %
17.10.2018 02:54 14,7 C 13,9 C 13,3 C 85 % 1016,0 hPa 0,0 l/m 0 min 0 min 0 W/m 6,4 km/h (2 Bft) 95,74 %
17.10.2018 02:56 14,7 C 13,9 C 13,3 C 85 % 1016,1 hPa 0,0 l/m 0 min 0 min 0 W/m 6,4 km/h (2 Bft) 95,74 %
17.10.2018 02:58 14,7 C 13,9 C 13,3 C 85 % 1015,9 hPa 0,0 l/m 0 min 0 min 0 W/m 9,7 km/h (2 Bft) 95,74 %
17.10.2018 03:00 14,7 C 13,9 C 13,3 C 85 % 1015,9 hPa 0,0 l/m 0 min 0 min 0 W/m 6,4 km/h (2 Bft) 91,49 %
17.10.2018 03:02 14,6 C 13,9 C 13,3 C 85 % 1016,0 hPa 0,0 l/m 0 min 0 min 0 W/m 9,7 km/h (2 Bft) 93,02 %
17.10.2018 03:04 14,6 C 13,9 C 13,3 C 85 % 1016,0 hPa 0,0 l/m 0 min 0 min 0 W/m 16,1 km/h (3 Bft) 94,00 %
17.10.2018 03:08 14,6 C 13,9 C 13,3 C 85 % 1015,9 hPa 0,0 l/m 0 min 0 min 0 W/m 6,4 km/h (2 Bft) 92,55 %
17.10.2018 03:10 14,6 C 13,9 C 13,3 C 85 % 1015,9 hPa 0,0 l/m 0 min 0 min 0 W/m 6,4 km/h (2 Bft) 93,62 %
17.10.2018 03:12 14,6 C 13,9 C 13,3 C 85 % 1016,1 hPa 0,0 l/m 0 min 0 min 0 W/m 6,4 km/h (2 Bft) 95,65 %
17.10.2018 03:14 14,6 C 13,9 C 13,3 C 85 % 1016,0 hPa 0,0 l/m 0 min 0 min 0 W/m 6,4 km/h (2 Bft) 95,74 %
17.10.2018 03:16 14,5 C 13,9 C 13,3 C 85 % 1016,0 hPa 0,0 l/m 0 min 0 min 0 W/m 3,2 km/h (1 Bft) 93,75 %
17.10.2018 03:18 14,5 C 13,9 C 13,3 C 85 % 1016,0 hPa 0,0 l/m 0 min 0 min 0 W/m 6,4 km/h (2 Bft) 95,74 %
17.10.2018 03:20 14,5 C 13,9 C 13,3 C 85 % 1016,0 hPa 0,0 l/m 0 min 0 min 0 W/m 9,7 km/h (2 Bft) 93,62 %
17.10.2018 03:22 14,5 C 13,9 C 13,3 C 85 % 1016,1 hPa 0,0 l/m 0 min 0 min 0 W/m 9,7 km/h (2 Bft) 95,74 %
17.10.2018 03:24 14,5 C 13,9 C 13,3 C 85 % 1016,0 hPa 0,0 l/m 0 min 0 min 0 W/m 9,7 km/h (2 Bft) 95,65 %
17.10.2018 03:26 14,4 C 13,9 C 13,3 C 85 % 1016,0 hPa 0,0 l/m 0 min 0 min 0 W/m 16,1 km/h (3 Bft) 93,62 %
17.10.2018 03:28 14,4 C 13,9 C 13,3 C 85 % 1016,0 hPa 0,0 l/m 0 min 0 min 0 W/m 9,7 km/h (2 Bft) 95,74 %
17.10.2018 03:30 14,4 C 13,9 C 13,3 C 86 % 1016,0 hPa 0,0 l/m 0 min 0 min 0 W/m 6,4 km/h (2 Bft) 97,87 %
17.10.2018 03:32 14,4 C 13,9 C 13,3 C 86 % 1016,0 hPa 0,0 l/m 0 min 0 min 0 W/m 6,4 km/h (2 Bft) 97,37 %
17.10.2018 03:34 14,4 C 13,9 C 13,3 C 86 % 1016,0 hPa 0,0 l/m 0 min 0 min 0 W/m 9,7 km/h (2 Bft) 97,87 %
17.10.2018 03:38 14,4 C 13,3 C 13,3 C 86 % 1016,0 hPa 0,0 l/m 0 min 0 min 0 W/m 9,7 km/h (2 Bft) 98,92 %
17.10.2018 03:40 14,4 C 13,3 C 12,8 C 86 % 1016,0 hPa 0,0 l/m 0 min 0 min 0 W/m 6,4 km/h (2 Bft) 100,00 %
17.10.2018 03:42 14,4 C 13,3 C 12,8 C 86 % 1016,0 hPa 0,0 l/m 0 min 0 min 0 W/m 6,4 km/h (2 Bft) 100,00 %
17.10.2018 03:44 14,4 C 13,3 C 12,8 C 86 % 1016,1 hPa 0,0 l/m 0 min 0 min 0 W/m 6,4 km/h (2 Bft) 100,00 %
17.10.2018 03:46 14,3 C 13,3 C 12,8 C 86 % 1016,0 hPa 0,0 l/m 0 min 0 min 0 W/m 9,7 km/h (2 Bft) 96,08 %
17.10.2018 03:48 14,3 C 13,3 C 12,8 C 86 % 1016,1 hPa 0,0 l/m 0 min 0 min 0 W/m 6,4 km/h (2 Bft) 100,00 %
17.10.2018 03:50 14,3 C 13,3 C 12,8 C 86 % 1016,0 hPa 0,0 l/m 0 min 0 min 0 W/m 9,7 km/h (2 Bft) 100,00 %
17.10.2018 03:52 14,3 C 13,3 C 12,8 C 86 % 1016,1 hPa 0,0 l/m 0 min 0 min 0 W/m 3,2 km/h (1 Bft) 100,00 %
17.10.2018 03:54 14,3 C 13,3 C 12,8 C 86 % 1016,0 hPa 0,0 l/m 0 min 0 min 0 W/m 6,4 km/h (2 Bft) 98,33 %
17.10.2018 03:56 14,3 C 13,3 C 12,8 C 86 % 1016,0 hPa 0,0 l/m 0 min 0 min 0 W/m 3,2 km/h (1 Bft) 100,00 %
17.10.2018 03:58 14,2 C 13,3 C 12,8 C 86 % 1016,1 hPa 0,0 l/m 0 min 0 min 0 W/m 9,7 km/h (2 Bft) 100,00 %
17.10.2018 04:00 14,2 C 13,3 C 12,8 C 86 % 1016,0 hPa 0,0 l/m 0 min 0 min 0 W/m 6,4 km/h (2 Bft) 100,00 %
17.10.2018 04:02 14,2 C 13,3 C 12,8 C 86 % 1015,9 hPa 0,0 l/m 0 min 0 min 0 W/m 9,7 km/h (2 Bft) 93,33 %
17.10.2018 04:04 14,2 C 13,3 C 12,8 C 86 % 1015,9 hPa 0,0 l/m 0 min 0 min 0 W/m 6,4 km/h (2 Bft) 95,74 %
17.10.2018 04:08 14,2 C 13,3 C 12,8 C 86 % 1015,9 hPa 0,0 l/m 0 min 0 min 0 W/m 9,7 km/h (2 Bft) 100,00 %
17.10.2018 04:10 14,2 C 13,3 C 12,8 C 86 % 1015,8 hPa 0,0 l/m 0 min 0 min 0 W/m 3,2 km/h (1 Bft) 100,00 %
17.10.2018 04:12 14,2 C 13,3 C 12,8 C 86 % 1015,8 hPa 0,0 l/m 0 min 0 min 0 W/m 6,4 km/h (2 Bft) 100,00 %
17.10.2018 04:14 14,2 C 13,3 C 12,8 C 86 % 1015,9 hPa 0,0 l/m 0 min 0 min 0 W/m 6,4 km/h (2 Bft) 100,00 %
17.10.2018 04:16 14,2 C 13,3 C 12,8 C 86 % 1015,8 hPa 0,0 l/m 0 min 0 min 0 W/m 6,4 km/h (2 Bft) 100,00 %
17.10.2018 04:18 14,2 C 13,3 C 12,8 C 86 % 1015,7 hPa 0,0 l/m 0 min 0 min 0 W/m 6,4 km/h (2 Bft) 100,00 %
17.10.2018 04:20 14,2 C 13,3 C 12,8 C 86 % 1015,7 hPa 0,0 l/m 0 min 0 min 0 W/m 6,4 km/h (2 Bft) 100,00 %
17.10.2018 04:22 14,2 C 13,3 C 12,8 C 87 % 1015,7 hPa 0,0 l/m 0 min 0 min 0 W/m 9,7 km/h (2 Bft) 100,00 %
17.10.2018 04:24 14,2 C 13,3 C 12,8 C 87 % 1015,8 hPa 0,0 l/m 0 min 0 min 0 W/m 6,4 km/h (2 Bft) 100,00 %
17.10.2018 04:26 14,1 C 13,3 C 12,8 C 87 % 1015,8 hPa 0,0 l/m 0 min 0 min 0 W/m 6,4 km/h (2 Bft) 100,00 %
17.10.2018 04:28 14,1 C 13,3 C 12,8 C 87 % 1015,8 hPa 0,0 l/m 0 min 0 min 0 W/m 9,7 km/h (2 Bft) 100,00 %
17.10.2018 04:30 14,1 C 13,3 C 12,8 C 87 % 1015,7 hPa 0,0 l/m 0 min 0 min 0 W/m 12,9 km/h (3 Bft) 100,00 %
17.10.2018 04:32 14,1 C 13,3 C 12,8 C 87 % 1015,7 hPa 0,0 l/m 0 min 0 min 0 W/m 9,7 km/h (2 Bft) 100,00 %
17.10.2018 04:34 14,1 C 13,3 C 12,8 C 87 % 1015,7 hPa 0,0 l/m 0 min 0 min 0 W/m 12,9 km/h (3 Bft) 100,00 %
17.10.2018 04:38 14,0 C 13,3 C 12,8 C 87 % 1015,8 hPa 0,0 l/m 0 min 0 min 0 W/m 9,7 km/h (2 Bft) 100,00 %
17.10.2018 04:40 14,0 C 13,3 C 12,8 C 87 % 1015,8 hPa 0,0 l/m 0 min 0 min 0 W/m 9,7 km/h (2 Bft) 100,00 %
17.10.2018 04:42 13,9 C 13,3 C 12,8 C 87 % 1015,8 hPa 0,0 l/m 0 min 0 min 0 W/m 9,7 km/h (2 Bft) 100,00 %
17.10.2018 04:44 13,9 C 13,3 C 12,8 C 87 % 1015,8 hPa 0,0 l/m 0 min 0 min 0 W/m 9,7 km/h (2 Bft) 100,00 %
17.10.2018 04:46 13,9 C 13,3 C 12,8 C 87 % 1015,8 hPa 0,0 l/m 0 min 0 min 0 W/m 9,7 km/h (2 Bft) 100,00 %
17.10.2018 04:48 13,9 C 13,3 C 12,8 C 87 % 1015,9 hPa 0,0 l/m 0 min 0 min 0 W/m 9,7 km/h (2 Bft) 100,00 %
17.10.2018 04:50 13,9 C 13,3 C 12,8 C 87 % 1015,9 hPa 0,0 l/m 0 min 0 min 0 W/m 16,1 km/h (3 Bft) 97,87 %
17.10.2018 04:52 13,9 C 13,3 C 12,8 C 87 % 1015,8 hPa 0,0 l/m 0 min 0 min 0 W/m 6,4 km/h (2 Bft) 95,74 %
17.10.2018 04:54 13,9 C 13,3 C 12,8 C 87 % 1015,8 hPa 0,0 l/m 0 min 0 min 0 W/m 6,4 km/h (2 Bft) 97,87 %
17.10.2018 04:56 13,9 C 13,3 C 12,8 C 87 % 1015,8 hPa 0,0 l/m 0 min 0 min 0 W/m 3,2 km/h (1 Bft) 97,87 %
17.10.2018 04:58 13,9 C 13,3 C 12,8 C 87 % 1015,9 hPa 0,0 l/m 0 min 0 min 0 W/m 6,4 km/h (2 Bft) 97,87 %
17.10.2018 05:00 13,9 C 13,3 C 12,8 C 87 % 1015,9 hPa 0,0 l/m 0 min 0 min 0 W/m 3,2 km/h (1 Bft) 93,48 %
17.10.2018 05:02 13,9 C 13,3 C 12,8 C 87 % 1015,9 hPa 0,0 l/m 0 min 0 min 0 W/m 3,2 km/h (1 Bft) 94,12 %
17.10.2018 05:04 13,9 C 13,3 C 12,8 C 87 % 1015,9 hPa 0,0 l/m 0 min 0 min 0 W/m 3,2 km/h (1 Bft) 95,74 %
17.10.2018 05:05 13,9 C 13,3 C 12,8 C 88 % 1015,9 hPa 0,0 l/m 0 min 0 min 0 W/m 3,2 km/h (1 Bft) 99,12 %
17.10.2018 05:10 13,9 C 13,3 C 12,8 C 88 % 1016,0 hPa 0,0 l/m 0 min 0 min 0 W/m 3,2 km/h (1 Bft) 100,00 %
17.10.2018 05:12 13,9 C 12,8 C 12,8 C 88 % 1015,9 hPa 0,0 l/m 0 min 0 min 0 W/m 3,2 km/h (1 Bft) 91,67 %
17.10.2018 05:14 13,9 C 12,8 C 12,8 C 87 % 1015,9 hPa 0,0 l/m 0 min 0 min 0 W/m 0,0 km/h (0 Bft) 95,74 %
17.10.2018 05:16 13,8 C 12,8 C 12,8 C 87 % 1016,0 hPa 0,0 l/m 0 min 0 min 0 W/m 9,7 km/h (2 Bft) 95,74 %
17.10.2018 05:18 13,8 C 12,8 C 12,8 C 87 % 1016,0 hPa 0,0 l/m 0 min 0 min 0 W/m 0,0 km/h (0 Bft) 97,87 %
17.10.2018 05:20 13,8 C 12,8 C 12,8 C 87 % 1016,1 hPa 0,0 l/m 0 min 0 min 0 W/m 3,2 km/h (1 Bft) 95,74 %
17.10.2018 05:22 13,8 C 12,8 C 12,8 C 87 % 1016,0 hPa 0,0 l/m 0 min 0 min 0 W/m 6,4 km/h (2 Bft) 93,48 %
17.10.2018 05:24 13,8 C 12,8 C 12,8 C 87 % 1016,0 hPa 0,0 l/m 0 min 0 min 0 W/m 0,0 km/h (0 Bft) 97,87 %
17.10.2018 05:26 13,8 C 12,8 C 12,2 C 87 % 1016,1 hPa 0,0 l/m 0 min 0 min 0 W/m 0,0 km/h (0 Bft) 97,87 %
17.10.2018 05:28 13,8 C 12,8 C 12,2 C 87 % 1016,1 hPa 0,0 l/m 0 min 0 min 0 W/m 0,0 km/h (0 Bft) 97,87 %
17.10.2018 05:30 13,8 C 12,8 C 12,2 C 87 % 1016,1 hPa 0,0 l/m 0 min 0 min 0 W/m 0,0 km/h (0 Bft) 95,74 %
17.10.2018 05:32 13,8 C 12,8 C 12,2 C 87 % 1016,1 hPa 0,0 l/m 0 min 0 min 0 W/m 3,2 km/h (1 Bft) 94,87 %
17.10.2018 05:34 13,7 C 12,8 C 12,2 C 87 % 1016,1 hPa 0,0 l/m 0 min 0 min 0 W/m 0,0 km/h (0 Bft) 95,74 %
17.10.2018 05:38 13,7 C 12,8 C 12,2 C 87 % 1016,1 hPa 0,0 l/m 0 min 0 min 0 W/m 0,0 km/h (0 Bft) 95,70 %
17.10.2018 05:40 13,7 C 12,8 C 12,2 C 87 % 1016,1 hPa 0,0 l/m 0 min 0 min 0 W/m 0,0 km/h (0 Bft) 93,62 %
17.10.2018 05:42 13,7 C 12,2 C 12,2 C 87 % 1016,1 hPa 0,0 l/m 0 min 0 min 0 W/m 0,0 km/h (0 Bft) 98,04 %
17.10.2018 05:44 13,7 C 12,2 C 11,7 C 87 % 1016,1 hPa 0,0 l/m 0 min 0 min 0 W/m 0,0 km/h (0 Bft) 97,87 %
17.10.2018 05:46 13,6 C 12,2 C 11,7 C 87 % 1016,1 hPa 0,0 l/m 0 min 0 min 0 W/m 0,0 km/h (0 Bft) 97,87 %
17.10.2018 05:48 13,6 C 12,2 C 11,7 C 87 % 1016,1 hPa 0,0 l/m 0 min 0 min 0 W/m 0,0 km/h (0 Bft) 97,87 %
17.10.2018 05:50 13,6 C 11,7 C 11,7 C 87 % 1016,1 hPa 0,0 l/m 0 min 0 min 0 W/m 0,0 km/h (0 Bft) 94,83 %
17.10.2018 05:52 13,5 C 11,7 C 11,7 C 87 % 1016,2 hPa 0,0 l/m 0 min 0 min 0 W/m 0,0 km/h (0 Bft) 94,44 %
17.10.2018 05:54 13,5 C 11,7 C 11,7 C 87 % 1016,2 hPa 0,0 l/m 0 min 0 min 0 W/m 0,0 km/h (0 Bft) 95,74 %
17.10.2018 05:56 13,4 C 11,7 C 11,7 C 87 % 1016,1 hPa 0,0 l/m 0 min 0 min 0 W/m 0,0 km/h (0 Bft) 97,87 %
17.10.2018 05:58 13,4 C 11,7 C 11,7 C 87 % 1016,2 hPa 0,0 l/m 0 min 0 min 0 W/m 0,0 km/h (0 Bft) 97,87 %
17.10.2018 06:00 13,4 C 11,7 C 11,7 C 87 % 1016,2 hPa 0,0 l/m 0 min 0 min 0 W/m 0,0 km/h (0 Bft) 97,83 %
17.10.2018 06:02 13,3 C 11,7 C 11,7 C 87 % 1016,2 hPa 0,0 l/m 0 min 0 min 0 W/m 0,0 km/h (0 Bft) 98,00 %
17.10.2018 06:04 13,3 C 11,7 C 11,7 C 87 % 1016,2 hPa 0,0 l/m 0 min 0 min 0 W/m 0,0 km/h (0 Bft) 97,87 %
17.10.2018 06:08 13,2 C 11,7 C 11,1 C 87 % 1016,3 hPa 0,0 l/m 0 min 0 min 0 W/m 0,0 km/h (0 Bft) 96,77 %
17.10.2018 06:10 13,2 C 11,7 C 11,7 C 87 % 1016,2 hPa 0,0 l/m 0 min 0 min 0 W/m 0,0 km/h (0 Bft) 97,87 %
17.10.2018 06:12 13,2 C 11,7 C 11,1 C 87 % 1016,3 hPa 0,0 l/m 0 min 0 min 0 W/m 0,0 km/h (0 Bft) 93,62 %
17.10.2018 06:14 13,1 C 11,7 C 11,1 C 87 % 1016,3 hPa 0,0 l/m 0 min 0 min 0 W/m 0,0 km/h (0 Bft) 95,74 %
17.10.2018 06:16 13,1 C 11,1 C 11,1 C 87 % 1016,2 hPa 0,0 l/m 0 min 0 min 0 W/m 0,0 km/h (0 Bft) 97,87 %
17.10.2018 06:18 13,0 C 11,1 C 11,1 C 87 % 1016,3 hPa 0,0 l/m 0 min 0 min 0 W/m 0,0 km/h (0 Bft) 97,87 %
17.10.2018 06:20 13,0 C 11,1 C 11,1 C 87 % 1016,3 hPa 0,0 l/m 0 min 0 min 0 W/m 0,0 km/h (0 Bft) 97,83 %
17.10.2018 06:22 12,9 C 11,1 C 11,1 C 87 % 1016,3 hPa 0,0 l/m 0 min 0 min 0 W/m 0,0 km/h (0 Bft) 95,74 %
17.10.2018 06:24 12,9 C 11,1 C 11,1 C 87 % 1016,2 hPa 0,0 l/m 0 min 0 min 0 W/m 0,0 km/h (0 Bft) 97,87 %
17.10.2018 06:26 12,8 C 11,1 C 11,1 C 87 % 1016,2 hPa 0,0 l/m 0 min 0 min 0 W/m 0,0 km/h (0 Bft) 97,87 %
17.10.2018 06:28 12,8 C 11,1 C 11,1 C 87 % 1016,2 hPa 0,0 l/m 0 min 0 min 0 W/m 0,0 km/h (0 Bft) 97,87 %
17.10.2018 06:30 12,8 C 11,1 C 11,1 C 87 % 1016,4 hPa 0,0 l/m 0 min 0 min 0 W/m 3,2 km/h (1 Bft) 97,87 %
17.10.2018 06:32 12,8 C 11,1 C 11,1 C 88 % 1016,5 hPa 0,0 l/m 0 min 0 min 0 W/m 3,2 km/h (1 Bft) 97,83 %
17.10.2018 06:34 12,7 C 11,1 C 11,1 C 88 % 1016,5 hPa 0,0 l/m 0 min 0 min 0 W/m 0,0 km/h (0 Bft) 97,87 %
17.10.2018 06:38 12,7 C 11,7 C 11,7 C 88 % 1016,5 hPa 0,0 l/m 0 min 0 min 0 W/m 0,0 km/h (0 Bft) 97,87 %
17.10.2018 06:40 12,6 C 11,1 C 11,7 C 88 % 1016,5 hPa 0,0 l/m 0 min 0 min 0 W/m 0,0 km/h (0 Bft) 97,87 %
17.10.2018 06:42 12,6 C 11,1 C 11,1 C 88 % 1016,5 hPa 0,0 l/m 0 min 0 min 0 W/m 0,0 km/h (0 Bft) 97,87 %
17.10.2018 06:44 12,6 C 11,1 C 11,1 C 88 % 1016,5 hPa 0,0 l/m 0 min 0 min 0 W/m 0,0 km/h (0 Bft) 97,83 %
17.10.2018 06:46 12,6 C 11,1 C 11,1 C 88 % 1016,5 hPa 0,0 l/m 0 min 0 min 0 W/m 0,0 km/h (0 Bft) 97,87 %
17.10.2018 06:48 12,6 C 11,1 C 11,1 C 88 % 1016,4 hPa 0,0 l/m 0 min 0 min 0 W/m 0,0 km/h (0 Bft) 97,87 %
17.10.2018 06:50 12,5 C 11,1 C 11,1 C 88 % 1016,3 hPa 0,0 l/m 0 min 0 min 0 W/m 0,0 km/h (0 Bft) 95,74 %
17.10.2018 06:52 12,5 C 11,1 C 11,1 C 89 % 1016,5 hPa 0,0 l/m 0 min 0 min 0 W/m 0,0 km/h (0 Bft) 95,74 %
17.10.2018 06:54 12,5 C 11,1 C 11,1 C 89 % 1016,5 hPa 0,0 l/m 0 min 0 min 0 W/m 0,0 km/h (0 Bft) 95,74 %
17.10.2018 06:56 12,4 C 11,7 C 11,1 C 89 % 1016,4 hPa 0,0 l/m 0 min 0 min 0 W/m 0,0 km/h (0 Bft) 97,83 %
17.10.2018 06:58 12,4 C 11,7 C 11,1 C 89 % 1016,3 hPa 0,0 l/m 0 min 0 min 0 W/m 0,0 km/h (0 Bft) 97,87 %
17.10.2018 07:00 12,4 C 11,1 C 11,1 C 89 % 1016,4 hPa 0,0 l/m 0 min 0 min 0 W/m 0,0 km/h (0 Bft) 93,62 %
17.10.2018 07:02 12,4 C 11,1 C 11,1 C 89 % 1016,4 hPa 0,0 l/m 0 min 0 min 0 W/m 0,0 km/h (0 Bft) 97,87 %
17.10.2018 07:04 12,4 C 11,1 C 11,1 C 89 % 1016,4 hPa 0,0 l/m 0 min 0 min 0 W/m 0,0 km/h (0 Bft) 97,87 %
17.10.2018 07:08 12,3 C 11,1 C 11,1 C 89 % 1016,4 hPa 0,0 l/m 0 min 0 min 0 W/m 0,0 km/h (0 Bft) 97,73 %
17.10.2018 07:10 12,3 C 11,7 C 11,1 C 89 % 1016,4 hPa 0,0 l/m 0 min 0 min 0 W/m 0,0 km/h (0 Bft) 97,87 %
17.10.2018 07:12 12,3 C 11,7 C 11,1 C 89 % 1016,4 hPa 0,0 l/m 0 min 0 min 0 W/m 0,0 km/h (0 Bft) 97,83 %
17.10.2018 07:14 12,3 C 11,1 C 11,1 C 89 % 1016,4 hPa 0,0 l/m 0 min 0 min 0 W/m 0,0 km/h (0 Bft) 95,74 %
17.10.2018 07:16 12,3 C 11,7 C 11,1 C 90 % 1016,4 hPa 0,0 l/m 0 min 0 min 0 W/m 0,0 km/h (0 Bft) 95,74 %
17.10.2018 07:18 12,3 C 11,1 C 11,1 C 90 % 1016,5 hPa 0,0 l/m 0 min 0 min 0 W/m 0,0 km/h (0 Bft) 97,87 %
17.10.2018 07:20 12,3 C 11,1 C 11,1 C 90 % 1016,4 hPa 0,0 l/m 0 min 0 min 0 W/m 0,0 km/h (0 Bft) 98,31 %
17.10.2018 07:22 12,2 C 11,1 C 11,1 C 90 % 1016,5 hPa 0,0 l/m 0 min 0 min 0 W/m 0,0 km/h (0 Bft) 100,00 %
17.10.2018 07:24 12,2 C 11,1 C 11,1 C 90 % 1016,5 hPa 0,0 l/m 0 min 0 min 0 W/m 0,0 km/h (0 Bft) 100,00 %
17.10.2018 07:26 12,2 C 11,1 C 11,1 C 90 % 1016,4 hPa 0,0 l/m 0 min 0 min 0 W/m 0,0 km/h (0 Bft) 100,00 %
17.10.2018 07:28 12,2 C 11,7 C 11,1 C 90 % 1016,4 hPa 0,0 l/m 0 min 0 min 0 W/m 0,0 km/h (0 Bft) 100,00 %
17.10.2018 07:30 12,2 C 11,7 C 11,1 C 90 % 1016,5 hPa 0,0 l/m 0 min 0 min 0 W/m 0,0 km/h (0 Bft) 97,87 %
17.10.2018 07:32 12,2 C 11,7 C 11,1 C 90 % 1016,5 hPa 0,0 l/m 0 min 0 min 0 W/m 0,0 km/h (0 Bft) 100,00 %
17.10.2018 07:34 12,2 C 11,7 C 11,1 C 90 % 1016,5 hPa 0,0 l/m 0 min 0 min 0 W/m 0,0 km/h (0 Bft) 100,00 %
17.10.2018 07:38 12,2 C 11,7 C 11,1 C 90 % 1016,4 hPa 0,0 l/m 0 min 0 min 0 W/m 0,0 km/h (0 Bft) 100,00 %
17.10.2018 07:40 12,2 C 11,7 C 11,1 C 90 % 1016,4 hPa 0,0 l/m 0 min 0 min 0 W/m 0,0 km/h (0 Bft) 95,74 %
17.10.2018 07:42 12,1 C 11,7 C 11,1 C 91 % 1016,5 hPa 0,0 l/m 0 min 0 min 0 W/m 0,0 km/h (0 Bft) 100,00 %
17.10.2018 07:44 12,1 C 11,7 C 11,1 C 91 % 1016,5 hPa 0,0 l/m 0 min 0 min 0 W/m 3,2 km/h (1 Bft) 97,87 %
17.10.2018 07:46 12,1 C 11,7 C 11,1 C 91 % 1016,4 hPa 0,0 l/m 0 min 0 min 0 W/m 0,0 km/h (0 Bft) 97,83 %
17.10.2018 07:48 12,1 C 11,7 C 11,1 C 91 % 1016,5 hPa 0,0 l/m 0 min 0 min 0 W/m 3,2 km/h (1 Bft) 97,87 %
17.10.2018 07:50 12,1 C 11,7 C 11,1 C 91 % 1016,5 hPa 0,0 l/m 0 min 0 min 0 W/m 3,2 km/h (1 Bft) 93,62 %
17.10.2018 07:52 12,1 C 11,7 C 11,1 C 91 % 1016,5 hPa 0,0 l/m 0 min 0 min 0 W/m 6,4 km/h (2 Bft) 97,87 %
17.10.2018 07:54 12,1 C 11,7 C 11,1 C 91 % 1016,5 hPa 0,0 l/m 0 min 0 min 0 W/m 3,2 km/h (1 Bft) 97,87 %
17.10.2018 07:56 12,1 C 11,7 C 11,1 C 91 % 1016,5 hPa 0,0 l/m 0 min 0 min 1 W/m 3,2 km/h (1 Bft) 93,62 %
17.10.2018 07:58 12,1 C 11,7 C 11,1 C 91 % 1016,5 hPa 0,0 l/m 0 min 0 min 5 W/m 6,4 km/h (2 Bft) 93,48 %
17.10.2018 08:00 12,1 C 11,7 C 11,1 C 92 % 1016,4 hPa 0,0 l/m 0 min 0 min 5 W/m 3,2 km/h (1 Bft) 95,74 %
17.10.2018 08:02 12,1 C 11,7 C 11,1 C 92 % 1016,5 hPa 0,0 l/m 0 min 0 min 5 W/m 3,2 km/h (1 Bft) 95,74 %
17.10.2018 08:04 12,1 C 11,7 C 11,1 C 92 % 1016,5 hPa 0,0 l/m 0 min 0 min 6 W/m 3,2 km/h (1 Bft) 95,74 %
17.10.2018 08:08 12,1 C 11,7 C 11,1 C 92 % 1016,5 hPa 0,0 l/m 0 min 0 min 7 W/m 3,2 km/h (1 Bft) 94,68 %
17.10.2018 08:10 12,1 C 11,7 C 11,1 C 92 % 1016,6 hPa 0,0 l/m 0 min 0 min 9 W/m 6,4 km/h (2 Bft) 95,65 %
17.10.2018 08:12 12,1 C 11,7 C 11,1 C 92 % 1016,6 hPa 0,0 l/m 0 min 0 min 11 W/m 3,2 km/h (1 Bft) 93,62 %
17.10.2018 08:14 12,1 C 11,7 C 11,1 C 92 % 1016,5 hPa 0,0 l/m 0 min 0 min 11 W/m 3,2 km/h (1 Bft) 93,62 %
17.10.2018 08:16 12,1 C 11,7 C 11,1 C 92 % 1016,5 hPa 0,0 l/m 0 min 0 min 12 W/m 6,4 km/h (2 Bft) 93,62 %
17.10.2018 08:18 12,1 C 11,7 C 11,1 C 92 % 1016,5 hPa 0,0 l/m 0 min 0 min 12 W/m 6,4 km/h (2 Bft) 95,74 %
17.10.2018 08:20 12,1 C 11,7 C 11,1 C 92 % 1016,5 hPa 0,0 l/m 0 min 0 min 12 W/m 3,2 km/h (1 Bft) 94,83 %
17.10.2018 08:22 12,1 C 11,7 C 11,7 C 92 % 1016,5 hPa 0,0 l/m 0 min 0 min 14 W/m 3,2 km/h (1 Bft) 94,29 %
17.10.2018 08:24 12,1 C 11,7 C 11,7 C 92 % 1016,5 hPa 0,0 l/m 0 min 0 min 14 W/m 6,4 km/h (2 Bft) 97,87 %
17.10.2018 08:26 12,1 C 11,7 C 11,7 C 92 % 1016,5 hPa 0,0 l/m 0 min 0 min 16 W/m 3,2 km/h (1 Bft) 95,74 %
17.10.2018 08:28 12,1 C 11,7 C 11,7 C 92 % 1016,5 hPa 0,0 l/m 0 min 0 min 17 W/m 6,4 km/h (2 Bft) 95,74 %
17.10.2018 08:30 12,1 C 11,7 C 11,7 C 92 % 1016,6 hPa 0,0 l/m 0 min 0 min 19 W/m 6,4 km/h (2 Bft) 95,83 %
17.10.2018 08:32 12,1 C 11,7 C 11,7 C 93 % 1016,6 hPa 0,0 l/m 0 min 0 min 19 W/m 3,2 km/h (1 Bft) 96,00 %
17.10.2018 08:34 12,1 C 11,7 C 11,7 C 93 % 1016,6 hPa 0,0 l/m 0 min 0 min 20 W/m 3,2 km/h (1 Bft) 97,83 %
17.10.2018 08:38 12,1 C 11,7 C 11,7 C 93 % 1016,6 hPa 0,0 l/m 0 min 0 min 22 W/m 6,4 km/h (2 Bft) 97,92 %
17.10.2018 08:40 12,1 C 11,7 C 11,7 C 93 % 1016,6 hPa 0,0 l/m 0 min 0 min 24 W/m 3,2 km/h (1 Bft) 97,87 %
17.10.2018 08:42 12,1 C 11,7 C 11,7 C 93 % 1016,6 hPa 0,0 l/m 0 min 0 min 25 W/m 3,2 km/h (1 Bft) 100,00 %
17.10.2018 08:44 12,1 C 11,7 C 11,7 C 93 % 1016,6 hPa 0,0 l/m 0 min 0 min 26 W/m 3,2 km/h (1 Bft) 97,87 %
17.10.2018 08:46 12,1 C 11,7 C 11,7 C 93 % 1016,6 hPa 0,0 l/m 0 min 0 min 27 W/m 3,2 km/h (1 Bft) 100,00 %
17.10.2018 08:48 12,1 C 11,7 C 11,7 C 93 % 1016,6 hPa 0,0 l/m 0 min 0 min 29 W/m 3,2 km/h (1 Bft) 100,00 %
17.10.2018 08:50 12,1 C 11,7 C 11,7 C 93 % 1016,6 hPa 0,0 l/m 0 min 0 min 30 W/m 6,4 km/h (2 Bft) 100,00 %
17.10.2018 08:52 12,1 C 11,7 C 11,7 C 93 % 1016,6 hPa 0,0 l/m 0 min 0 min 30 W/m 3,2 km/h (1 Bft) 100,00 %
17.10.2018 08:54 12,1 C 11,7 C 11,7 C 93 % 1016,6 hPa 0,0 l/m 0 min 0 min 30 W/m 3,2 km/h (1 Bft) 100,00 %
17.10.2018 08:56 12,1 C 11,7 C 11,7 C 93 % 1016,6 hPa 0,0 l/m 0 min 0 min 30 W/m 3,2 km/h (1 Bft) 100,00 %
17.10.2018 08:58 12,1 C 12,2 C 11,7 C 93 % 1016,6 hPa 0,0 l/m 0 min 0 min 30 W/m 3,2 km/h (1 Bft) 100,00 %
17.10.2018 09:00 12,1 C 12,2 C 11,7 C 93 % 1016,6 hPa 0,0 l/m 0 min 0 min 30 W/m 6,4 km/h (2 Bft) 100,00 %
17.10.2018 09:02 12,1 C 12,2 C 11,7 C 93 % 1016,6 hPa 0,0 l/m 0 min 0 min 30 W/m 0,0 km/h (0 Bft) 100,00 %
17.10.2018 09:04 12,1 C 12,2 C 11,7 C 93 % 1016,6 hPa 0,0 l/m 0 min 0 min 33 W/m 3,2 km/h (1 Bft) 100,00 %
17.10.2018 09:08 12,1 C 12,2 C 11,7 C 93 % 1016,6 hPa 0,0 l/m 0 min 0 min 33 W/m 3,2 km/h (1 Bft) 98,00 %
17.10.2018 09:10 12,1 C 12,2 C 11,7 C 93 % 1016,7 hPa 0,0 l/m 0 min 0 min 33 W/m 3,2 km/h (1 Bft) 100,00 %
17.10.2018 09:12 12,1 C 12,2 C 11,7 C 93 % 1016,7 hPa 0,0 l/m 0 min 0 min 35 W/m 0,0 km/h (0 Bft) 100,00 %
17.10.2018 09:14 12,1 C 12,2 C 11,7 C 93 % 1016,6 hPa 0,0 l/m 0 min 0 min 36 W/m 3,2 km/h (1 Bft) 100,00 %
17.10.2018 09:16 12,1 C 12,2 C 11,7 C 93 % 1016,7 hPa 0,0 l/m 0 min 0 min 39 W/m 6,4 km/h (2 Bft) 100,00 %
17.10.2018 09:18 12,1 C 12,2 C 11,7 C 93 % 1016,7 hPa 0,0 l/m 0 min 0 min 40 W/m 3,2 km/h (1 Bft) 100,00 %
17.10.2018 09:20 12,1 C 12,2 C 11,7 C 93 % 1016,7 hPa 0,0 l/m 0 min 0 min 42 W/m 6,4 km/h (2 Bft) 100,00 %
17.10.2018 09:22 12,1 C 12,2 C 11,7 C 93 % 1016,7 hPa 0,0 l/m 0 min 0 min 41 W/m 3,2 km/h (1 Bft) 100,00 %
17.10.2018 09:24 12,2 C 12,2 C 11,7 C 93 % 1016,7 hPa 0,0 l/m 0 min 0 min 42 W/m 3,2 km/h (1 Bft) 100,00 %
17.10.2018 09:26 12,2 C 12,2 C 11,7 C 93 % 1016,7 hPa 0,0 l/m 0 min 0 min 43 W/m 3,2 km/h (1 Bft) 100,00 %
17.10.2018 09:28 12,2 C 12,2 C 11,7 C 93 % 1016,7 hPa 0,0 l/m 0 min 0 min 44 W/m 3,2 km/h (1 Bft) 100,00 %
17.10.2018 09:30 12,2 C 12,2 C 11,7 C 93 % 1016,7 hPa 0,0 l/m 0 min 0 min 46 W/m 3,2 km/h (1 Bft) 100,00 %
17.10.2018 09:32 12,2 C 12,2 C 11,7 C 93 % 1016,6 hPa 0,0 l/m 0 min 0 min 46 W/m 3,2 km/h (1 Bft) 97,87 %
17.10.2018 09:34 12,2 C 12,8 C 11,7 C 93 % 1016,7 hPa 0,0 l/m 0 min 0 min 48 W/m 6,4 km/h (2 Bft) 100,00 %
17.10.2018 09:38 12,2 C 12,8 C 11,7 C 93 % 1016,7 hPa 0,0 l/m 0 min 0 min 50 W/m 6,4 km/h (2 Bft) 100,00 %
17.10.2018 09:40 12,3 C 12,8 C 11,7 C 93 % 1016,7 hPa 0,0 l/m 0 min 0 min 51 W/m 6,4 km/h (2 Bft) 100,00 %
17.10.2018 09:42 12,3 C 12,8 C 11,7 C 93 % 1016,7 hPa 0,0 l/m 0 min 0 min 49 W/m 6,4 km/h (2 Bft) 100,00 %
17.10.2018 09:44 12,3 C 12,8 C 11,7 C 93 % 1016,7 hPa 0,0 l/m 0 min 0 min 54 W/m 9,7 km/h (2 Bft) 97,83 %
17.10.2018 09:46 12,3 C 12,8 C 11,7 C 93 % 1016,7 hPa 0,0 l/m 0 min 0 min 65 W/m 9,7 km/h (2 Bft) 100,00 %
17.10.2018 09:48 12,3 C 12,8 C 12,2 C 94 % 1016,7 hPa 0,0 l/m 0 min 0 min 68 W/m 3,2 km/h (1 Bft) 100,00 %
17.10.2018 09:50 12,4 C 13,3 C 12,2 C 94 % 1016,8 hPa 0,0 l/m 0 min 0 min 64 W/m 6,4 km/h (2 Bft) 100,00 %
17.10.2018 09:52 12,4 C 13,3 C 12,2 C 94 % 1016,8 hPa 0,0 l/m 0 min 0 min 67 W/m 6,4 km/h (2 Bft) 100,00 %
17.10.2018 09:54 12,4 C 13,3 C 12,2 C 94 % 1016,8 hPa 0,0 l/m 0 min 0 min 71 W/m 6,4 km/h (2 Bft) 100,00 %
17.10.2018 09:56 12,5 C 13,3 C 12,2 C 94 % 1016,8 hPa 0,0 l/m 0 min 0 min 73 W/m 6,4 km/h (2 Bft) 100,00 %
17.10.2018 09:58 12,5 C 13,9 C 12,2 C 94 % 1016,9 hPa 0,0 l/m 0 min 0 min 73 W/m 3,2 km/h (1 Bft) 100,00 %
17.10.2018 10:00 12,6 C 14,4 C 12,2 C 94 % 1016,9 hPa 0,0 l/m 0 min 0 min 72 W/m 3,2 km/h (1 Bft) 100,00 %
17.10.2018 10:02 12,6 C 15,0 C 12,2 C 94 % 1016,9 hPa 0,0 l/m 0 min 0 min 72 W/m 6,4 km/h (2 Bft) 97,87 %
17.10.2018 10:04 12,7 C 15,6 C 12,2 C 94 % 1016,9 hPa 0,0 l/m 0 min 0 min 75 W/m 6,4 km/h (2 Bft) 97,96 %
17.10.2018 10:08 12,8 C 15,6 C 12,2 C 94 % 1017,1 hPa 0,0 l/m 0 min 0 min 72 W/m 6,4 km/h (2 Bft) 96,88 %
17.10.2018 10:10 12,9 C 16,1 C 12,8 C 94 % 1017,0 hPa 0,0 l/m 0 min 0 min 72 W/m 6,4 km/h (2 Bft) 97,87 %
17.10.2018 10:12 12,9 C 16,1 C 12,8 C 94 % 1017,0 hPa 0,0 l/m 0 min 0 min 72 W/m 6,4 km/h (2 Bft) 97,87 %
17.10.2018 10:14 13,0 C 16,7 C 12,8 C 94 % 1017,1 hPa 0,0 l/m 0 min 0 min 74 W/m 3,2 km/h (1 Bft) 97,87 %
17.10.2018 10:16 13,1 C 16,7 C 12,8 C 94 % 1017,2 hPa 0,0 l/m 0 min 0 min 76 W/m 6,4 km/h (2 Bft) 95,74 %
17.10.2018 10:18 13,1 C 17,2 C 12,8 C 94 % 1017,1 hPa 0,0 l/m 0 min 0 min 77 W/m 3,2 km/h (1 Bft) 97,83 %
17.10.2018 10:20 13,2 C 17,8 C 12,8 C 94 % 1017,2 hPa 0,0 l/m 0 min 0 min 77 W/m 0,0 km/h (0 Bft) 97,87 %
17.10.2018 10:22 13,2 C 18,3 C 12,8 C 94 % 1017,2 hPa 0,0 l/m 0 min 0 min 79 W/m 3,2 km/h (1 Bft) 95,74 %
17.10.2018 10:24 13,3 C 18,9 C 12,8 C 94 % 1017,2 hPa 0,0 l/m 0 min 0 min 83 W/m 3,2 km/h (1 Bft) 95,74 %
17.10.2018 10:26 13,4 C 19,4 C 12,8 C 94 % 1017,2 hPa 0,0 l/m 0 min 0 min 107 W/m 3,2 km/h (1 Bft) 93,62 %
17.10.2018 10:28 13,4 C 19,4 C 12,8 C 94 % 1017,1 hPa 0,0 l/m 0 min 0 min 143 W/m 3,2 km/h (1 Bft) 93,62 %
17.10.2018 10:30 13,6 C 19,4 C 12,8 C 94 % 1017,2 hPa 0,0 l/m 0 min 0 min 132 W/m 3,2 km/h (1 Bft) 95,65 %
17.10.2018 10:32 13,7 C 19,4 C 12,8 C 94 % 1017,2 hPa 0,0 l/m 0 min 0 min 124 W/m 0,0 km/h (0 Bft) 94,00 %
17.10.2018 10:34 13,7 C 20,6 C 12,8 C 93 % 1017,2 hPa 0,0 l/m 0 min 0 min 137 W/m 0,0 km/h (0 Bft) 93,62 %
17.10.2018 10:38 13,9 C 21,1 C 13,3 C 93 % 1017,2 hPa 0,0 l/m 0 min 0 min 112 W/m 6,4 km/h (2 Bft) 91,67 %
17.10.2018 10:40 14,1 C 21,7 C 13,3 C 93 % 1017,2 hPa 0,0 l/m 0 min 0 min 107 W/m 6,4 km/h (2 Bft) 95,65 %
17.10.2018 10:42 14,2 C 21,7 C 13,3 C 93 % 1017,2 hPa 0,0 l/m 0 min 0 min 104 W/m 3,2 km/h (1 Bft) 97,96 %
17.10.2018 10:44 14,2 C 21,7 C 13,3 C 93 % 1017,2 hPa 0,0 l/m 0 min 0 min 108 W/m 0,0 km/h (0 Bft) 93,62 %
17.10.2018 10:46 14,4 C 22,2 C 13,3 C 93 % 1017,3 hPa 0,0 l/m 0 min 0 min 110 W/m 6,4 km/h (2 Bft) 95,74 %
17.10.2018 10:48 14,5 C 22,2 C 13,3 C 92 % 1017,3 hPa 0,0 l/m 0 min 0 min 107 W/m 3,2 km/h (1 Bft) 97,96 %
17.10.2018 10:50 14,6 C 22,8 C 13,3 C 92 % 1017,3 hPa 0,0 l/m 0 min 0 min 137 W/m 3,2 km/h (1 Bft) 95,65 %
17.10.2018 10:52 14,8 C 22,2 C 13,3 C 91 % 1017,3 hPa 0,0 l/m 0 min 0 min 134 W/m 0,0 km/h (0 Bft) 98,11 %
17.10.2018 10:54 14,9 C 21,7 C 13,9 C 91 % 1017,3 hPa 0,0 l/m 0 min 0 min 134 W/m 0,0 km/h (0 Bft) 90,48 %
17.10.2018 10:56 15,0 C 22,8 C 13,9 C 90 % 1017,3 hPa 0,0 l/m 2 min 0 min 194 W/m 0,0 km/h (0 Bft) 97,87 %
17.10.2018 10:58 15,2 C 21,7 C 13,9 C 90 % 1017,3 hPa 0,0 l/m 0 min 0 min 132 W/m 0,0 km/h (0 Bft) 95,74 %
17.10.2018 11:00 15,3 C 22,2 C 13,9 C 89 % 1017,3 hPa 0,0 l/m 0 min 0 min 158 W/m 0,0 km/h (0 Bft) 97,87 %
17.10.2018 11:02 15,4 C 22,2 C 13,9 C 88 % 1017,2 hPa 0,0 l/m 0 min 0 min 169 W/m 0,0 km/h (0 Bft) 97,67 %
17.10.2018 11:04 15,6 C 20,6 C 13,9 C 87 % 1017,2 hPa 0,0 l/m 0 min 0 min 116 W/m 3,2 km/h (1 Bft) 96,08 %
17.10.2018 11:08 15,8 C 22,2 C 14,4 C 85 % 1017,3 hPa 0,0 l/m 0 min 0 min 115 W/m 3,2 km/h (1 Bft) 96,81 %
17.10.2018 11:10 16,0 C 22,8 C 14,4 C 84 % 1017,2 hPa 0,0 l/m 0 min 0 min 104 W/m 0,0 km/h (0 Bft) 97,92 %
17.10.2018 11:12 16,1 C 23,9 C 14,4 C 84 % 1017,3 hPa 0,0 l/m 0 min 0 min 125 W/m 3,2 km/h (1 Bft) 95,74 %
17.10.2018 11:14 16,2 C 23,3 C 14,4 C 83 % 1017,2 hPa 0,0 l/m 0 min 0 min 93 W/m 6,4 km/h (2 Bft) 97,83 %
17.10.2018 11:16 16,4 C 23,3 C 14,4 C 82 % 1017,3 hPa 0,0 l/m 0 min 0 min 103 W/m 6,4 km/h (2 Bft) 98,00 %
17.10.2018 11:18 16,5 C 23,3 C 14,4 C 81 % 1017,3 hPa 0,0 l/m 0 min 0 min 97 W/m 3,2 km/h (1 Bft) 97,87 %
17.10.2018 11:20 16,6 C 23,9 C 14,4 C 81 % 1017,3 hPa 0,0 l/m 0 min 0 min 93 W/m 6,4 km/h (2 Bft) 93,62 %
17.10.2018 11:22 16,7 C 23,9 C 14,4 C 80 % 1017,3 hPa 0,0 l/m 0 min 0 min 99 W/m 6,4 km/h (2 Bft) 97,87 %
17.10.2018 11:24 16,9 C 24,4 C 14,4 C 80 % 1017,3 hPa 0,0 l/m 0 min 0 min 102 W/m 6,4 km/h (2 Bft) 97,83 %
17.10.2018 11:26 17,0 C 25,6 C 14,4 C 80 % 1017,3 hPa 0,0 l/m 0 min 0 min 98 W/m 3,2 km/h (1 Bft) 97,87 %
17.10.2018 11:28 17,2 C 25,0 C 14,4 C 80 % 1017,2 hPa 0,0 l/m 0 min 0 min 133 W/m 3,2 km/h (1 Bft) 97,87 %
17.10.2018 11:30 17,3 C 25,0 C 14,4 C 79 % 1017,2 hPa 0,0 l/m 0 min 0 min 201 W/m 3,2 km/h (1 Bft) 97,87 %
17.10.2018 11:32 17,4 C 25,6 C 14,4 C 79 % 1017,2 hPa 0,0 l/m 2 min 0 min 257 W/m 6,4 km/h (2 Bft) 94,29 %
17.10.2018 11:34 17,5 C 25,0 C 14,4 C 78 % 1017,2 hPa 0,0 l/m 0 min 0 min 153 W/m 3,2 km/h (1 Bft) 97,87 %
17.10.2018 11:38 17,7 C 26,1 C 14,4 C 76 % 1017,3 hPa 0,0 l/m 0 min 0 min 89 W/m 6,4 km/h (2 Bft) 97,87 %
17.10.2018 11:40 17,9 C 24,4 C 14,4 C 76 % 1017,3 hPa 0,0 l/m 0 min 0 min 144 W/m 3,2 km/h (1 Bft) 97,83 %
17.10.2018 11:42 17,9 C 23,9 C 15,0 C 75 % 1017,3 hPa 0,0 l/m 2 min 0 min 263 W/m 3,2 km/h (1 Bft) 97,87 %
17.10.2018 11:44 18,1 C 25,0 C 15,0 C 75 % 1017,3 hPa 0,0 l/m 0 min 0 min 212 W/m 3,2 km/h (1 Bft) 97,87 %
17.10.2018 11:46 18,2 C 26,1 C 15,0 C 75 % 1017,3 hPa 0,0 l/m 2 min 0 min 223 W/m 6,4 km/h (2 Bft) 97,87 %
17.10.2018 11:48 18,3 C 25,0 C 15,0 C 74 % 1017,3 hPa 0,0 l/m 2 min 0 min 314 W/m 6,4 km/h (2 Bft) 97,87 %
17.10.2018 11:50 18,4 C 24,4 C 15,0 C 74 % 1017,3 hPa 0,0 l/m 2 min 0 min 236 W/m 3,2 km/h (1 Bft) 98,28 %
17.10.2018 11:52 18,6 C 25,0 C 15,0 C 74 % 1017,4 hPa 0,0 l/m 0 min 0 min 106 W/m 3,2 km/h (1 Bft) 93,62 %
17.10.2018 11:54 18,7 C 26,1 C 15,0 C 73 % 1017,3 hPa 0,0 l/m 0 min 0 min 100 W/m 0,0 km/h (0 Bft) 100,00 %
17.10.2018 11:56 18,7 C 26,7 C 15,6 C 73 % 1017,2 hPa 0,0 l/m 0 min 0 min 105 W/m 3,2 km/h (1 Bft) 97,87 %
17.10.2018 11:58 18,8 C 26,1 C 15,6 C 73 % 1017,3 hPa 0,0 l/m 0 min 0 min 204 W/m 3,2 km/h (1 Bft) 97,87 %
17.10.2018 12:00 18,9 C 26,7 C 15,0 C 73 % 1017,3 hPa 0,0 l/m 0 min 0 min 115 W/m 6,4 km/h (2 Bft) 95,74 %
17.10.2018 12:02 19,0 C 27,8 C 15,0 C 73 % 1017,2 hPa 0,0 l/m 0 min 0 min 137 W/m 3,2 km/h (1 Bft) 97,87 %
17.10.2018 12:04 19,1 C 26,1 C 15,0 C 73 % 1017,3 hPa 0,0 l/m 0 min 0 min 188 W/m 3,2 km/h (1 Bft) 97,83 %
17.10.2018 12:08 19,3 C 25,6 C 15,6 C 72 % 1017,3 hPa 0,0 l/m 4 min 0 min 246 W/m 3,2 km/h (1 Bft) 97,87 %
17.10.2018 12:10 19,3 C 25,0 C 15,6 C 72 % 1017,4 hPa 0,0 l/m 0 min 0 min 116 W/m 6,4 km/h (2 Bft) 97,87 %
17.10.2018 12:12 19,4 C 26,1 C 15,6 C 71 % 1017,3 hPa 0,0 l/m 0 min 0 min 169 W/m 6,4 km/h (2 Bft) 97,87 %
17.10.2018 12:14 19,5 C 26,7 C 15,6 C 71 % 1017,3 hPa 0,0 l/m 2 min 0 min 243 W/m 3,2 km/h (1 Bft) 95,65 %
17.10.2018 12:16 19,6 C 26,1 C 16,1 C 71 % 1017,2 hPa 0,0 l/m 0 min 0 min 159 W/m 3,2 km/h (1 Bft) 95,83 %
17.10.2018 12:18 19,6 C 26,1 C 16,1 C 70 % 1017,3 hPa 0,0 l/m 0 min 0 min 120 W/m 6,4 km/h (2 Bft) 97,87 %
17.10.2018 12:20 19,7 C 26,1 C 16,1 C 69 % 1017,2 hPa 0,0 l/m 0 min 0 min 114 W/m 3,2 km/h (1 Bft) 97,87 %
17.10.2018 12:22 19,7 C 26,7 C 16,1 C 70 % 1017,2 hPa 0,0 l/m 0 min 0 min 122 W/m 6,4 km/h (2 Bft) 97,87 %
17.10.2018 12:24 19,8 C 26,1 C 16,1 C 69 % 1017,2 hPa 0,0 l/m 0 min 0 min 111 W/m 6,4 km/h (2 Bft) 97,87 %
17.10.2018 12:26 19,9 C 25,0 C 16,1 C 69 % 1017,3 hPa 0,0 l/m 0 min 0 min 103 W/m 6,4 km/h (2 Bft) 93,48 %
17.10.2018 12:28 19,9 C 25,0 C 16,1 C 68 % 1017,3 hPa 0,0 l/m 0 min 0 min 95 W/m 6,4 km/h (2 Bft) 91,49 %
17.10.2018 12:30 19,9 C 25,6 C 15,6 C 68 % 1017,3 hPa 0,0 l/m 0 min 0 min 102 W/m 6,4 km/h (2 Bft) 91,49 %
17.10.2018 12:32 20,0 C 23,9 C 15,6 C 68 % 1017,2 hPa 0,0 l/m 0 min 0 min 102 W/m 3,2 km/h (1 Bft) 94,34 %
17.10.2018 12:34 20,0 C 22,2 C 16,1 C 68 % 1017,2 hPa 0,0 l/m 0 min 0 min 101 W/m 3,2 km/h (1 Bft) 93,75 %
17.10.2018 12:38 20,0 C 20,6 C 16,1 C 68 % 1017,2 hPa 0,0 l/m 0 min 0 min 104 W/m 3,2 km/h (1 Bft) 93,81 %
17.10.2018 12:40 20,0 C 21,1 C 16,1 C 67 % 1017,2 hPa 0,0 l/m 0 min 0 min 115 W/m 3,2 km/h (1 Bft) 93,62 %
17.10.2018 12:42 20,0 C 21,1 C 16,1 C 67 % 1017,2 hPa 0,0 l/m 0 min 0 min 117 W/m 6,4 km/h (2 Bft) 93,62 %
17.10.2018 12:44 20,0 C 21,1 C 15,6 C 67 % 1017,2 hPa 0,0 l/m 0 min 0 min 105 W/m 3,2 km/h (1 Bft) 93,62 %
17.10.2018 12:46 19,9 C 20,0 C 16,1 C 68 % 1017,1 hPa 0,0 l/m 0 min 0 min 178 W/m 6,4 km/h (2 Bft) 91,49 %
17.10.2018 12:48 19,9 C 20,0 C 16,1 C 68 % 1017,1 hPa 0,0 l/m 0 min 0 min 158 W/m 6,4 km/h (2 Bft) 93,62 %
17.10.2018 12:50 19,8 C 19,4 C 16,1 C 68 % 1017,0 hPa 0,0 l/m 0 min 0 min 120 W/m 3,2 km/h (1 Bft) 93,48 %
17.10.2018 12:52 19,8 C 19,4 C 16,1 C 68 % 1017,0 hPa 0,0 l/m 0 min 0 min 151 W/m 3,2 km/h (1 Bft) 95,74 %
17.10.2018 12:54 19,8 C 18,9 C 16,1 C 68 % 1017,1 hPa 0,0 l/m 0 min 0 min 173 W/m 0,0 km/h (0 Bft) 95,74 %
17.10.2018 12:56 19,8 C 18,9 C 16,1 C 68 % 1017,0 hPa 0,0 l/m 0 min 0 min 174 W/m 0,0 km/h (0 Bft) 95,74 %
17.10.2018 12:58 19,8 C 19,4 C 16,1 C 69 % 1017,0 hPa 0,0 l/m 2 min 0 min 294 W/m 6,4 km/h (2 Bft) 95,74 %
17.10.2018 13:00 19,7 C 19,4 C 16,1 C 69 % 1017,1 hPa 0,0 l/m 2 min 0 min 399 W/m 6,4 km/h (2 Bft) 95,74 %
17.10.2018 13:02 19,7 C 19,4 C 16,1 C 69 % 1017,0 hPa 0,0 l/m 2 min 0 min 392 W/m 6,4 km/h (2 Bft) 94,44 %
17.10.2018 13:04 19,7 C 19,4 C 16,1 C 69 % 1017,0 hPa 0,0 l/m 2 min 0 min 387 W/m 6,4 km/h (2 Bft) 95,74 %
17.10.2018 13:08 19,6 C 18,9 C 16,1 C 69 % 1017,0 hPa 0,0 l/m 4 min 0 min 356 W/m 9,7 km/h (2 Bft) 94,12 %
17.10.2018 13:10 19,6 C 18,9 C 16,7 C 70 % 1017,0 hPa 0,0 l/m 2 min 0 min 364 W/m 3,2 km/h (1 Bft) 95,74 %
17.10.2018 13:12 19,6 C 19,4 C 16,7 C 70 % 1016,9 hPa 0,0 l/m 2 min 0 min 389 W/m 6,4 km/h (2 Bft) 97,87 %
17.10.2018 13:14 19,6 C 19,4 C 16,7 C 70 % 1016,9 hPa 0,0 l/m 2 min 0 min 388 W/m 6,4 km/h (2 Bft) 100,00 %
17.10.2018 13:16 19,6 C 19,4 C 16,7 C 70 % 1017,0 hPa 0,0 l/m 2 min 0 min 415 W/m 9,7 km/h (2 Bft) 100,00 %
17.10.2018 13:18 19,5 C 19,4 C 16,7 C 70 % 1016,9 hPa 0,0 l/m 2 min 0 min 421 W/m 9,7 km/h (2 Bft) 97,87 %
17.10.2018 13:20 19,5 C 19,4 C 16,7 C 70 % 1017,0 hPa 0,0 l/m 2 min 0 min 423 W/m 6,4 km/h (2 Bft) 97,87 %
17.10.2018 13:22 19,5 C 19,4 C 16,7 C 70 % 1016,9 hPa 0,0 l/m 2 min 0 min 424 W/m 9,7 km/h (2 Bft) 100,00 %
17.10.2018 13:24 19,5 C 19,4 C 16,7 C 70 % 1016,8 hPa 0,0 l/m 2 min 0 min 421 W/m 6,4 km/h (2 Bft) 100,00 %
17.10.2018 13:26 19,6 C 19,4 C 16,7 C 70 % 1016,9 hPa 0,0 l/m 2 min 0 min 422 W/m 3,2 km/h (1 Bft) 97,83 %
17.10.2018 13:28 19,6 C 19,4 C 16,7 C 70 % 1016,9 hPa 0,0 l/m 2 min 0 min 425 W/m 3,2 km/h (1 Bft) 97,87 %
17.10.2018 13:30 19,6 C 20,0 C 16,7 C 70 % 1016,9 hPa 0,0 l/m 2 min 0 min 427 W/m 6,4 km/h (2 Bft) 97,87 %
17.10.2018 13:32 19,6 C 20,0 C 17,2 C 70 % 1016,8 hPa 0,0 l/m 2 min 0 min 425 W/m 9,7 km/h (2 Bft) 100,00 %
17.10.2018 13:34 19,6 C 19,4 C 16,7 C 70 % 1016,8 hPa 0,0 l/m 2 min 0 min 424 W/m 6,4 km/h (2 Bft) 100,00 %
17.10.2018 13:38 19,6 C 19,4 C 17,2 C 69 % 1016,7 hPa 0,0 l/m 4 min 0 min 422 W/m 9,7 km/h (2 Bft) 100,00 %
17.10.2018 13:40 19,6 C 20,0 C 17,2 C 70 % 1016,7 hPa 0,0 l/m 2 min 0 min 425 W/m 6,4 km/h (2 Bft) 100,00 %
17.10.2018 13:42 19,6 C 20,0 C 17,2 C 70 % 1016,8 hPa 0,0 l/m 2 min 0 min 424 W/m 6,4 km/h (2 Bft) 97,87 %
17.10.2018 13:44 19,7 C 20,0 C 17,2 C 70 % 1016,7 hPa 0,0 l/m 2 min 0 min 413 W/m 6,4 km/h (2 Bft) 97,87 %
17.10.2018 13:46 19,7 C 20,0 C 17,8 C 70 % 1016,7 hPa 0,0 l/m 2 min 0 min 410 W/m 9,7 km/h (2 Bft) 100,00 %
17.10.2018 13:48 19,7 C 20,0 C 17,2 C 70 % 1016,7 hPa 0,0 l/m 2 min 0 min 417 W/m 6,4 km/h (2 Bft) 100,00 %
17.10.2018 13:50 19,7 C 20,0 C 17,2 C 69 % 1016,6 hPa 0,0 l/m 2 min 0 min 416 W/m 3,2 km/h (1 Bft) 97,87 %
17.10.2018 13:52 19,8 C 20,0 C 17,2 C 69 % 1016,7 hPa 0,0 l/m 2 min 0 min 416 W/m 3,2 km/h (1 Bft) 100,00 %
17.10.2018 13:54 19,8 C 20,0 C 17,8 C 69 % 1016,7 hPa 0,0 l/m 2 min 0 min 420 W/m 6,4 km/h (2 Bft) 100,00 %
17.10.2018 13:56 19,8 C 20,6 C 17,8 C 69 % 1016,6 hPa 0,0 l/m 2 min 0 min 420 W/m 0,0 km/h (0 Bft) 100,00 %
17.10.2018 13:58 19,8 C 20,6 C 17,8 C 69 % 1016,6 hPa 0,0 l/m 2 min 0 min 419 W/m 6,4 km/h (2 Bft) 100,00 %
17.10.2018 14:00 19,9 C 20,6 C 17,8 C 69 % 1016,6 hPa 0,0 l/m 2 min 0 min 420 W/m 6,4 km/h (2 Bft) 100,00 %
17.10.2018 14:02 19,9 C 20,6 C 17,8 C 69 % 1016,6 hPa 0,0 l/m 2 min 0 min 408 W/m 3,2 km/h (1 Bft) 100,00 %
17.10.2018 14:04 19,9 C 20,6 C 17,8 C 69 % 1016,6 hPa 0,0 l/m 2 min 0 min 412 W/m 6,4 km/h (2 Bft) 100,00 %
17.10.2018 14:08 20,1 C 21,1 C 17,8 C 69 % 1016,5 hPa 0,0 l/m 4 min 0 min 427 W/m 3,2 km/h (1 Bft) 100,00 %
17.10.2018 14:10 20,1 C 21,1 C 17,2 C 69 % 1016,5 hPa 0,0 l/m 2 min 0 min 424 W/m 6,4 km/h (2 Bft) 100,00 %
17.10.2018 14:12 20,1 C 21,1 C 17,8 C 69 % 1016,5 hPa 0,0 l/m 2 min 0 min 420 W/m 6,4 km/h (2 Bft) 100,00 %
17.10.2018 14:14 20,1 C 21,1 C 17,8 C 69 % 1016,5 hPa 0,0 l/m 2 min 0 min 382 W/m 3,2 km/h (1 Bft) 100,00 %
17.10.2018 14:16 20,2 C 21,1 C 17,8 C 68 % 1016,4 hPa 0,0 l/m 0 min 0 min 229 W/m 3,2 km/h (1 Bft) 100,00 %
17.10.2018 14:18 20,2 C 21,1 C 17,8 C 68 % 1016,4 hPa 0,0 l/m 0 min 0 min 173 W/m 3,2 km/h (1 Bft) 98,15 %
17.10.2018 14:20 20,2 C 21,1 C 17,8 C 68 % 1016,4 hPa 0,0 l/m 0 min 0 min 156 W/m 3,2 km/h (1 Bft) 100,00 %
17.10.2018 14:22 20,3 C 21,1 C 17,8 C 68 % 1016,4 hPa 0,0 l/m 0 min 0 min 125 W/m 6,4 km/h (2 Bft) 100,00 %
17.10.2018 14:24 20,3 C 21,1 C 17,8 C 68 % 1016,4 hPa 0,0 l/m 0 min 0 min 125 W/m 3,2 km/h (1 Bft) 100,00 %
17.10.2018 14:26 20,3 C 21,1 C 17,8 C 67 % 1016,4 hPa 0,0 l/m 0 min 0 min 127 W/m 0,0 km/h (0 Bft) 100,00 %
17.10.2018 14:28 20,4 C 21,1 C 17,8 C 67 % 1016,4 hPa 0,0 l/m 0 min 0 min 129 W/m 3,2 km/h (1 Bft) 100,00 %
17.10.2018 14:30 20,4 C 21,1 C 17,8 C 67 % 1016,4 hPa 0,0 l/m 0 min 0 min 132 W/m 6,4 km/h (2 Bft) 100,00 %
17.10.2018 14:32 20,4 C 21,1 C 17,8 C 67 % 1016,3 hPa 0,0 l/m 0 min 0 min 132 W/m 9,7 km/h (2 Bft) 97,83 %
17.10.2018 14:34 20,5 C 21,1 C 17,8 C 66 % 1016,3 hPa 0,0 l/m 0 min 0 min 134 W/m 9,7 km/h (2 Bft) 100,00 %
17.10.2018 14:38 20,6 C 21,7 C 17,8 C 66 % 1016,3 hPa 0,0 l/m 0 min 0 min 132 W/m 9,7 km/h (2 Bft) 99,05 %
17.10.2018 14:40 20,7 C 21,7 C 17,8 C 66 % 1016,3 hPa 0,0 l/m 0 min 0 min 129 W/m 3,2 km/h (1 Bft) 100,00 %
17.10.2018 14:42 20,7 C 21,7 C 18,3 C 66 % 1016,2 hPa 0,0 l/m 0 min 0 min 128 W/m 3,2 km/h (1 Bft) 97,87 %
17.10.2018 14:44 20,7 C 21,7 C 18,3 C 66 % 1016,3 hPa 0,0 l/m 0 min 0 min 138 W/m 3,2 km/h (1 Bft) 100,00 %
17.10.2018 14:46 20,8 C 21,7 C 18,3 C 66 % 1016,2 hPa 0,0 l/m 0 min 0 min 145 W/m 3,2 km/h (1 Bft) 98,28 %
17.10.2018 14:48 20,8 C 21,1 C 18,3 C 65 % 1016,2 hPa 0,0 l/m 0 min 0 min 211 W/m 6,4 km/h (2 Bft) 100,00 %
17.10.2018 14:50 20,9 C 21,7 C 18,3 C 65 % 1016,3 hPa 0,0 l/m 0 min 0 min 164 W/m 6,4 km/h (2 Bft) 100,00 %
17.10.2018 14:52 20,9 C 21,7 C 18,3 C 66 % 1016,2 hPa 0,0 l/m 2 min 0 min 264 W/m 9,7 km/h (2 Bft) 97,87 %
17.10.2018 14:54 21,0 C 21,1 C 18,3 C 65 % 1016,2 hPa 0,0 l/m 2 min 0 min 382 W/m 6,4 km/h (2 Bft) 97,87 %
17.10.2018 14:56 21,0 C 21,1 C 18,3 C 65 % 1016,2 hPa 0,0 l/m 2 min 0 min 393 W/m 3,2 km/h (1 Bft) 97,83 %
17.10.2018 14:58 21,0 C 21,1 C 18,3 C 65 % 1016,2 hPa 0,0 l/m 2 min 0 min 396 W/m 9,7 km/h (2 Bft) 97,22 %
17.10.2018 15:00 21,1 C 21,1 C 18,3 C 65 % 1016,2 hPa 0,0 l/m 2 min 0 min 391 W/m 9,7 km/h (2 Bft) 98,28 %
17.10.2018 15:02 21,1 C 21,7 C 18,3 C 64 % 1016,2 hPa 0,0 l/m 2 min 0 min 390 W/m 6,4 km/h (2 Bft) 98,08 %
17.10.2018 15:04 21,1 C 21,7 C 18,3 C 64 % 1016,2 hPa 0,0 l/m 2 min 0 min 386 W/m 0,0 km/h (0 Bft) 97,87 %
17.10.2018 15:08 21,2 C 21,1 C 18,3 C 64 % 1016,2 hPa 0,0 l/m 4 min 0 min 385 W/m 6,4 km/h (2 Bft) 95,70 %
17.10.2018 15:10 21,2 C 21,7 C 18,3 C 64 % 1016,2 hPa 0,0 l/m 2 min 0 min 391 W/m 6,4 km/h (2 Bft) 97,87 %
17.10.2018 15:12 21,2 C 21,7 C 18,3 C 64 % 1016,1 hPa 0,0 l/m 2 min 0 min 390 W/m 3,2 km/h (1 Bft) 100,00 %
17.10.2018 15:14 21,2 C 21,7 C 18,3 C 64 % 1016,1 hPa 0,0 l/m 2 min 0 min 391 W/m 3,2 km/h (1 Bft) 94,92 %
17.10.2018 15:16 21,3 C 21,7 C 18,3 C 64 % 1016,3 hPa 0,0 l/m 2 min 0 min 386 W/m 6,4 km/h (2 Bft) 94,29 %
17.10.2018 15:18 21,3 C 21,7 C 18,3 C 64 % 1016,2 hPa 0,0 l/m 2 min 0 min 387 W/m 9,7 km/h (2 Bft) 96,55 %
17.10.2018 15:20 21,3 C 21,7 C 18,9 C 63 % 1016,2 hPa 0,0 l/m 2 min 0 min 387 W/m 9,7 km/h (2 Bft) 95,74 %
17.10.2018 15:22 21,3 C 21,7 C 18,9 C 63 % 1016,2 hPa 0,0 l/m 2 min 0 min 392 W/m 6,4 km/h (2 Bft) 95,74 %
17.10.2018 15:24 21,4 C 21,7 C 18,3 C 64 % 1016,1 hPa 0,0 l/m 2 min 0 min 380 W/m 6,4 km/h (2 Bft) 94,29 %
17.10.2018 15:26 21,4 C 21,7 C 18,3 C 64 % 1016,1 hPa 0,0 l/m 2 min 0 min 370 W/m 9,7 km/h (2 Bft) 95,74 %
17.10.2018 15:28 21,4 C 21,1 C 18,3 C 63 % 1016,1 hPa 0,0 l/m 2 min 0 min 369 W/m 6,4 km/h (2 Bft) 95,74 %
17.10.2018 15:30 21,4 C 21,7 C 18,9 C 64 % 1016,2 hPa 0,0 l/m 2 min 0 min 374 W/m 12,9 km/h (3 Bft) 93,62 %
17.10.2018 15:32 21,4 C 21,7 C 18,9 C 64 % 1016,1 hPa 0,0 l/m 2 min 0 min 369 W/m 9,7 km/h (2 Bft) 97,92 %
17.10.2018 15:34 21,5 C 21,7 C 18,9 C 64 % 1016,1 hPa 0,0 l/m 2 min 0 min 366 W/m 6,4 km/h (2 Bft) 93,48 %
17.10.2018 15:38 21,5 C 21,7 C 18,9 C 64 % 1016,1 hPa 0,0 l/m 4 min 0 min 368 W/m 12,9 km/h (3 Bft) 95,74 %
17.10.2018 15:40 21,6 C 21,7 C 18,9 C 64 % 1016,0 hPa 0,0 l/m 2 min 0 min 355 W/m 9,7 km/h (2 Bft) 97,87 %
17.10.2018 15:42 21,6 C 21,7 C 18,9 C 64 % 1016,1 hPa 0,0 l/m 2 min 0 min 337 W/m 6,4 km/h (2 Bft) 97,87 %
17.10.2018 15:44 21,6 C 21,7 C 18,9 C 64 % 1016,0 hPa 0,0 l/m 2 min 0 min 335 W/m 6,4 km/h (2 Bft) 93,62 %
17.10.2018 15:46 21,6 C 21,7 C 18,9 C 65 % 1016,0 hPa 0,0 l/m 2 min 0 min 332 W/m 6,4 km/h (2 Bft) 95,65 %
17.10.2018 15:48 21,6 C 21,7 C 18,9 C 64 % 1016,0 hPa 0,0 l/m 2 min 0 min 329 W/m 6,4 km/h (2 Bft) 93,62 %
17.10.2018 15:50 21,6 C 21,7 C 18,9 C 64 % 1016,0 hPa 0,0 l/m 2 min 0 min 329 W/m 9,7 km/h (2 Bft) 94,92 %
17.10.2018 15:52 21,6 C 21,7 C 18,9 C 64 % 1016,0 hPa 0,0 l/m 2 min 0 min 335 W/m 3,2 km/h (1 Bft) 97,14 %
17.10.2018 15:54 21,7 C 21,7 C 18,9 C 65 % 1016,0 hPa 0,0 l/m 2 min 0 min 334 W/m 3,2 km/h (1 Bft) 93,62 %
17.10.2018 15:56 21,7 C 21,7 C 18,9 C 65 % 1016,0 hPa 0,0 l/m 2 min 0 min 325 W/m 6,4 km/h (2 Bft) 95,74 %
17.10.2018 15:58 21,7 C 21,7 C 18,9 C 64 % 1016,0 hPa 0,0 l/m 2 min 0 min 323 W/m 9,7 km/h (2 Bft) 95,65 %
17.10.2018 16:00 21,7 C 21,7 C 18,9 C 64 % 1016,0 hPa 0,0 l/m 2 min 0 min 314 W/m 6,4 km/h (2 Bft) 95,74 %
17.10.2018 16:02 21,7 C 21,7 C 18,9 C 64 % 1016,0 hPa 0,0 l/m 2 min 0 min 316 W/m 12,9 km/h (3 Bft) 97,92 %
17.10.2018 16:04 21,7 C 21,7 C 18,9 C 64 % 1015,9 hPa 0,0 l/m 2 min 0 min 306 W/m 6,4 km/h (2 Bft) 97,87 %
17.10.2018 16:08 21,7 C 22,2 C 19,4 C 63 % 1015,9 hPa 0,0 l/m 4 min 0 min 291 W/m 9,7 km/h (2 Bft) 96,88 %
17.10.2018 16:10 21,8 C 21,7 C 18,9 C 63 % 1015,9 hPa 0,0 l/m 2 min 0 min 287 W/m 3,2 km/h (1 Bft) 97,87 %
17.10.2018 16:12 21,8 C 21,7 C 18,9 C 64 % 1016,0 hPa 0,0 l/m 2 min 0 min 275 W/m 9,7 km/h (2 Bft) 97,83 %
17.10.2018 16:14 21,8 C 21,7 C 18,9 C 63 % 1016,0 hPa 0,0 l/m 2 min 0 min 264 W/m 9,7 km/h (2 Bft) 97,87 %
17.10.2018 16:16 21,8 C 21,7 C 18,9 C 63 % 1016,0 hPa 0,0 l/m 2 min 0 min 257 W/m 3,2 km/h (1 Bft) 97,87 %
17.10.2018 16:18 21,8 C 21,7 C 18,9 C 63 % 1015,9 hPa 0,0 l/m 2 min 0 min 256 W/m 3,2 km/h (1 Bft) 97,87 %
17.10.2018 16:20 21,8 C 21,7 C 18,9 C 63 % 1016,0 hPa 0,0 l/m 2 min 0 min 253 W/m 6,4 km/h (2 Bft) 97,87 %
17.10.2018 16:22 21,8 C 21,7 C 18,9 C 63 % 1016,0 hPa 0,0 l/m 2 min 0 min 257 W/m 12,9 km/h (3 Bft) 97,87 %
17.10.2018 16:24 21,8 C 22,2 C 18,9 C 63 % 1016,1 hPa 0,0 l/m 2 min 0 min 261 W/m 9,7 km/h (2 Bft) 95,65 %
17.10.2018 16:26 21,8 C 22,2 C 18,9 C 63 % 1016,0 hPa 0,0 l/m 2 min 0 min 259 W/m 9,7 km/h (2 Bft) 97,87 %
17.10.2018 16:28 21,8 C 22,2 C 18,9 C 63 % 1016,0 hPa 0,0 l/m 2 min 0 min 261 W/m 16,1 km/h (3 Bft) 97,87 %
17.10.2018 16:30 21,8 C 22,8 C 18,9 C 63 % 1016,0 hPa 0,0 l/m 2 min 0 min 244 W/m 9,7 km/h (2 Bft) 97,87 %
17.10.2018 16:32 21,8 C 22,8 C 18,9 C 63 % 1016,0 hPa 0,0 l/m 2 min 0 min 213 W/m 9,7 km/h (2 Bft) 97,56 %
17.10.2018 16:34 21,8 C 22,8 C 18,9 C 64 % 1016,0 hPa 0,0 l/m 2 min 0 min 220 W/m 6,4 km/h (2 Bft) 95,74 %
17.10.2018 16:38 21,8 C 22,2 C 18,9 C 63 % 1016,0 hPa 0,0 l/m 4 min 0 min 223 W/m 9,7 km/h (2 Bft) 97,87 %
17.10.2018 16:40 21,8 C 22,2 C 18,9 C 63 % 1015,9 hPa 0,0 l/m 2 min 0 min 223 W/m 9,7 km/h (2 Bft) 100,00 %
17.10.2018 16:42 21,8 C 22,2 C 18,9 C 63 % 1016,0 hPa 0,0 l/m 2 min 0 min 222 W/m 3,2 km/h (1 Bft) 100,00 %
17.10.2018 16:44 21,8 C 21,7 C 18,9 C 64 % 1015,9 hPa 0,0 l/m 2 min 0 min 214 W/m 9,7 km/h (2 Bft) 100,00 %
17.10.2018 16:46 21,7 C 21,7 C 18,9 C 64 % 1015,9 hPa 0,0 l/m 2 min 0 min 215 W/m 9,7 km/h (2 Bft) 97,87 %
17.10.2018 16:48 21,7 C 21,7 C 18,9 C 65 % 1016,0 hPa 0,0 l/m 2 min 0 min 209 W/m 6,4 km/h (2 Bft) 100,00 %
17.10.2018 16:50 21,7 C 21,1 C 18,9 C 64 % 1016,0 hPa 0,0 l/m 2 min 0 min 199 W/m 12,9 km/h (3 Bft) 100,00 %
17.10.2018 16:52 21,7 C 21,1 C 18,9 C 64 % 1016,0 hPa 0,0 l/m 2 min 0 min 193 W/m 9,7 km/h (2 Bft) 100,00 %
17.10.2018 16:54 21,7 C 21,1 C 18,9 C 64 % 1016,0 hPa 0,0 l/m 2 min 0 min 155 W/m 6,4 km/h (2 Bft) 97,87 %
17.10.2018 16:56 21,7 C 21,1 C 18,9 C 65 % 1016,0 hPa 0,0 l/m 2 min 0 min 151 W/m 9,7 km/h (2 Bft) 100,00 %
17.10.2018 16:58 21,6 C 21,1 C 18,9 C 64 % 1016,0 hPa 0,0 l/m 2 min 0 min 123 W/m 12,9 km/h (3 Bft) 100,00 %
17.10.2018 17:00 21,6 C 20,6 C 18,9 C 64 % 1016,0 hPa 0,0 l/m 0 min 0 min 85 W/m 16,1 km/h (3 Bft) 100,00 %
17.10.2018 17:02 21,6 C 20,6 C 18,9 C 64 % 1016,0 hPa 0,0 l/m 0 min 0 min 81 W/m 6,4 km/h (2 Bft) 97,87 %
17.10.2018 17:04 21,6 C 20,6 C 18,9 C 65 % 1016,1 hPa 0,0 l/m 0 min 0 min 79 W/m 9,7 km/h (2 Bft) 100,00 %
17.10.2018 17:08 21,5 C 20,6 C 18,9 C 65 % 1016,1 hPa 0,0 l/m 0 min 0 min 77 W/m 9,7 km/h (2 Bft) 100,00 %
17.10.2018 17:10 21,5 C 20,6 C 18,9 C 65 % 1016,1 hPa 0,0 l/m 0 min 0 min 73 W/m 16,1 km/h (3 Bft) 100,00 %
17.10.2018 17:12 21,4 C 20,6 C 18,9 C 65 % 1016,1 hPa 0,0 l/m 0 min 0 min 74 W/m 6,4 km/h (2 Bft) 100,00 %
17.10.2018 17:14 21,4 C 20,6 C 18,9 C 65 % 1016,2 hPa 0,0 l/m 0 min 0 min 74 W/m 12,9 km/h (3 Bft) 97,87 %
17.10.2018 17:16 21,4 C 20,0 C 18,9 C 65 % 1016,1 hPa 0,0 l/m 0 min 0 min 72 W/m 9,7 km/h (2 Bft) 100,00 %
17.10.2018 17:18 21,3 C 20,0 C 18,3 C 65 % 1016,2 hPa 0,0 l/m 0 min 0 min 72 W/m 12,9 km/h (3 Bft) 100,00 %
17.10.2018 17:20 21,3 C 20,0 C 18,3 C 65 % 1016,2 hPa 0,0 l/m 0 min 0 min 71 W/m 6,4 km/h (2 Bft) 100,00 %
17.10.2018 17:22 21,3 C 20,0 C 18,3 C 65 % 1016,2 hPa 0,0 l/m 0 min 0 min 70 W/m 6,4 km/h (2 Bft) 100,00 %
17.10.2018 17:24 21,2 C 20,0 C 18,3 C 65 % 1016,3 hPa 0,0 l/m 0 min 0 min 70 W/m 6,4 km/h (2 Bft) 97,87 %
17.10.2018 17:26 21,2 C 20,0 C 18,3 C 65 % 1016,3 hPa 0,0 l/m 0 min 0 min 70 W/m 9,7 km/h (2 Bft) 100,00 %
17.10.2018 17:28 21,2 C 20,0 C 18,3 C 65 % 1016,2 hPa 0,0 l/m 0 min 0 min 70 W/m 6,4 km/h (2 Bft) 100,00 %
17.10.2018 17:30 21,1 C 20,0 C 18,3 C 66 % 1016,3 hPa 0,0 l/m 0 min 0 min 70 W/m 12,9 km/h (3 Bft) 100,00 %
17.10.2018 17:32 21,1 C 20,0 C 18,3 C 66 % 1016,3 hPa 0,0 l/m 0 min 0 min 69 W/m 16,1 km/h (3 Bft) 97,62 %
17.10.2018 17:34 21,1 C 20,0 C 18,3 C 66 % 1016,3 hPa 0,0 l/m 0 min 0 min 68 W/m 12,9 km/h (3 Bft) 100,00 %
17.10.2018 17:38 21,0 C 20,0 C 18,3 C 66 % 1016,3 hPa 0,0 l/m 0 min 0 min 63 W/m 12,9 km/h (3 Bft) 100,00 %
17.10.2018 17:40 21,0 C 20,0 C 18,3 C 67 % 1016,3 hPa 0,0 l/m 0 min 0 min 58 W/m 12,9 km/h (3 Bft) 100,00 %
17.10.2018 17:42 20,9 C 20,0 C 18,3 C 67 % 1016,3 hPa 0,0 l/m 0 min 0 min 55 W/m 12,9 km/h (3 Bft) 95,74 %
17.10.2018 17:44 20,9 C 20,0 C 18,3 C 67 % 1016,2 hPa 0,0 l/m 0 min 0 min 54 W/m 9,7 km/h (2 Bft) 95,65 %
17.10.2018 17:46 20,9 C 19,4 C 18,3 C 67 % 1016,3 hPa 0,0 l/m 0 min 0 min 54 W/m 9,7 km/h (2 Bft) 95,74 %
17.10.2018 17:48 20,8 C 19,4 C 18,3 C 68 % 1016,3 hPa 0,0 l/m 0 min 0 min 53 W/m 9,7 km/h (2 Bft) 93,62 %
17.10.2018 17:50 20,8 C 19,4 C 18,3 C 68 % 1016,3 hPa 0,0 l/m 0 min 0 min 50 W/m 6,4 km/h (2 Bft) 95,74 %
17.10.2018 17:52 20,8 C 19,4 C 17,8 C 68 % 1016,3 hPa 0,0 l/m 0 min 0 min 47 W/m 6,4 km/h (2 Bft) 93,62 %
17.10.2018 17:54 20,8 C 19,4 C 17,8 C 68 % 1016,3 hPa 0,0 l/m 0 min 0 min 45 W/m 3,2 km/h (1 Bft) 97,83 %
17.10.2018 17:56 20,7 C 18,9 C 17,8 C 69 % 1016,3 hPa 0,0 l/m 0 min 0 min 41 W/m 3,2 km/h (1 Bft) 95,74 %
17.10.2018 17:58 20,7 C 18,9 C 17,8 C 69 % 1016,3 hPa 0,0 l/m 0 min 0 min 40 W/m 6,4 km/h (2 Bft) 95,74 %
17.10.2018 18:00 20,6 C 18,9 C 17,8 C 69 % 1016,3 hPa 0,0 l/m 0 min 0 min 40 W/m 3,2 km/h (1 Bft) 93,62 %
17.10.2018 18:02 20,6 C 18,9 C 17,8 C 69 % 1016,3 hPa 0,0 l/m 0 min 0 min 37 W/m 6,4 km/h (2 Bft) 95,74 %
17.10.2018 18:04 20,6 C 18,9 C 17,8 C 69 % 1016,2 hPa 0,0 l/m 0 min 0 min 33 W/m 3,2 km/h (1 Bft) 95,74 %
17.10.2018 18:08 20,4 C 18,9 C 17,8 C 69 % 1016,2 hPa 0,0 l/m 0 min 0 min 30 W/m 9,7 km/h (2 Bft) 93,55 %
17.10.2018 18:10 20,4 C 18,9 C 17,8 C 69 % 1016,2 hPa 0,0 l/m 0 min 0 min 26 W/m 6,4 km/h (2 Bft) 93,62 %
17.10.2018 18:12 20,4 C 18,9 C 17,8 C 69 % 1016,2 hPa 0,0 l/m 2 min 0 min 26 W/m 6,4 km/h (2 Bft) 95,74 %
17.10.2018 18:14 20,3 C 18,9 C 17,2 C 69 % 1016,2 hPa 0,0 l/m 2 min 0 min 24 W/m 3,2 km/h (1 Bft) 93,62 %
17.10.2018 18:16 20,3 C 18,3 C 17,2 C 69 % 1016,3 hPa 0,0 l/m 2 min 0 min 21 W/m 3,2 km/h (1 Bft) 95,74 %
17.10.2018 18:18 20,2 C 18,3 C 17,2 C 70 % 1016,4 hPa 0,0 l/m 0 min 0 min 19 W/m 6,4 km/h (2 Bft) 95,65 %
17.10.2018 18:20 20,2 C 18,3 C 17,2 C 70 % 1016,5 hPa 0,0 l/m 0 min 0 min 18 W/m 3,2 km/h (1 Bft) 95,74 %
17.10.2018 18:22 20,2 C 18,3 C 16,7 C 70 % 1016,4 hPa 0,0 l/m 0 min 0 min 18 W/m 3,2 km/h (1 Bft) 93,62 %
17.10.2018 18:24 20,1 C 18,3 C 16,7 C 70 % 1016,4 hPa 0,0 l/m 0 min 0 min 16 W/m 3,2 km/h (1 Bft) 95,74 %
17.10.2018 18:26 20,1 C 17,8 C 16,7 C 70 % 1016,4 hPa 0,0 l/m 0 min 0 min 13 W/m 0,0 km/h (0 Bft) 95,74 %
17.10.2018 18:28 20,0 C 17,8 C 16,7 C 70 % 1016,5 hPa 0,0 l/m 0 min 0 min 12 W/m 0,0 km/h (0 Bft) 97,87 %
17.10.2018 18:30 19,9 C 17,8 C 16,7 C 70 % 1016,5 hPa 0,0 l/m 0 min 0 min 11 W/m 3,2 km/h (1 Bft) 100,00 %
17.10.2018 18:32 19,9 C 17,8 C 16,1 C 70 % 1016,5 hPa 0,0 l/m 0 min 0 min 9 W/m 0,0 km/h (0 Bft) 97,87 %
17.10.2018 18:34 19,8 C 17,2 C 16,1 C 71 % 1016,5 hPa 0,0 l/m 0 min 0 min 7 W/m 3,2 km/h (1 Bft) 100,00 %
17.10.2018 18:38 19,7 C 17,2 C 16,1 C 71 % 1016,6 hPa 0,0 l/m 0 min 0 min 6 W/m 3,2 km/h (1 Bft) 100,00 %
17.10.2018 18:40 19,7 C 17,2 C 16,1 C 71 % 1016,5 hPa 0,0 l/m 0 min 0 min 5 W/m 0,0 km/h (0 Bft) 96,00 %
17.10.2018 18:42 19,6 C 17,2 C 15,6 C 71 % 1016,5 hPa 0,0 l/m 0 min 0 min 5 W/m 3,2 km/h (1 Bft) 97,83 %
17.10.2018 18:44 19,6 C 17,2 C 16,1 C 71 % 1016,6 hPa 0,0 l/m 0 min 0 min 7 W/m 3,2 km/h (1 Bft) 100,00 %
17.10.2018 18:46 19,5 C 17,2 C 15,6 C 72 % 1016,7 hPa 0,0 l/m 0 min 0 min 7 W/m 0,0 km/h (0 Bft) 100,00 %
17.10.2018 18:48 19,4 C 17,2 C 15,6 C 72 % 1016,6 hPa 0,0 l/m 0 min 0 min 7 W/m 3,2 km/h (1 Bft) 100,00 %
17.10.2018 18:50 19,3 C 17,2 C 15,6 C 72 % 1016,6 hPa 0,0 l/m 0 min 0 min 6 W/m 3,2 km/h (1 Bft) 100,00 %
17.10.2018 18:52 19,3 C 17,2 C 16,1 C 73 % 1016,6 hPa 0,0 l/m 0 min 0 min 5 W/m 6,4 km/h (2 Bft) 100,00 %
17.10.2018 18:54 19,2 C 17,2 C 16,1 C 73 % 1016,6 hPa 0,0 l/m 0 min 0 min 2 W/m 3,2 km/h (1 Bft) 97,87 %
17.10.2018 18:56 19,2 C 17,2 C 16,1 C 73 % 1016,7 hPa 0,0 l/m 0 min 0 min 0 W/m 9,7 km/h (2 Bft) 97,83 %
17.10.2018 18:58 19,1 C 17,2 C 16,1 C 73 % 1016,8 hPa 0,0 l/m 0 min 0 min 0 W/m 6,4 km/h (2 Bft) 97,87 %
17.10.2018 19:00 19,0 C 17,2 C 16,1 C 74 % 1016,7 hPa 0,0 l/m 0 min 0 min 0 W/m 6,4 km/h (2 Bft) 97,87 %
17.10.2018 19:02 18,9 C 17,2 C 16,1 C 74 % 1016,7 hPa 0,0 l/m 0 min 0 min 0 W/m 6,4 km/h (2 Bft) 97,87 %
17.10.2018 19:04 18,9 C 17,2 C 16,1 C 74 % 1016,9 hPa 0,0 l/m 0 min 0 min 0 W/m 6,4 km/h (2 Bft) 95,74 %
17.10.2018 19:08 18,8 C 16,7 C 16,1 C 75 % 1016,9 hPa 0,0 l/m 0 min 0 min 0 W/m 9,7 km/h (2 Bft) 97,87 %
17.10.2018 19:10 18,7 C 16,7 C 16,1 C 75 % 1016,9 hPa 0,0 l/m 0 min 0 min 0 W/m 9,7 km/h (2 Bft) 98,00 %
17.10.2018 19:12 18,6 C 16,7 C 16,1 C 76 % 1016,9 hPa 0,0 l/m 0 min 0 min 0 W/m 6,4 km/h (2 Bft) 97,14 %
17.10.2018 19:14 18,6 C 16,7 C 16,1 C 76 % 1016,9 hPa 0,0 l/m 0 min 0 min 0 W/m 0,0 km/h (0 Bft) 97,96 %
17.10.2018 19:16 18,5 C 16,7 C 16,1 C 77 % 1016,9 hPa 0,0 l/m 0 min 0 min 0 W/m 3,2 km/h (1 Bft) 97,87 %
17.10.2018 19:18 18,4 C 16,7 C 16,1 C 77 % 1016,9 hPa 0,0 l/m 0 min 0 min 0 W/m 12,9 km/h (3 Bft) 97,87 %
17.10.2018 19:20 18,4 C 16,7 C 16,1 C 77 % 1016,9 hPa 0,0 l/m 0 min 0 min 0 W/m 9,7 km/h (2 Bft) 97,87 %
17.10.2018 19:22 18,3 C 16,7 C 16,1 C 78 % 1016,9 hPa 0,0 l/m 0 min 0 min 0 W/m 9,7 km/h (2 Bft) 95,74 %
17.10.2018 19:24 18,3 C 16,7 C 16,1 C 78 % 1017,0 hPa 0,0 l/m 0 min 0 min 0 W/m 3,2 km/h (1 Bft) 97,87 %
17.10.2018 19:26 18,2 C 16,7 C 16,1 C 78 % 1017,0 hPa 0,0 l/m 0 min 0 min 0 W/m 9,7 km/h (2 Bft) 98,18 %
17.10.2018 19:28 18,2 C 16,7 C 16,1 C 79 % 1017,0 hPa 0,0 l/m 0 min 0 min 0 W/m 6,4 km/h (2 Bft) 97,37 %
17.10.2018 19:30 18,1 C 16,7 C 16,1 C 79 % 1017,0 hPa 0,0 l/m 0 min 0 min 0 W/m 9,7 km/h (2 Bft) 97,87 %
17.10.2018 19:32 18,1 C 16,7 C 16,1 C 79 % 1017,0 hPa 0,0 l/m 0 min 0 min 0 W/m 6,4 km/h (2 Bft) 97,92 %
17.10.2018 19:34 18,1 C 16,1 C 16,1 C 79 % 1017,0 hPa 0,0 l/m 0 min 0 min 0 W/m 3,2 km/h (1 Bft) 97,87 %
17.10.2018 19:38 18,0 C 16,1 C 16,1 C 80 % 1017,0 hPa 0,0 l/m 0 min 0 min 0 W/m 9,7 km/h (2 Bft) 97,87 %
17.10.2018 19:40 17,9 C 16,1 C 16,1 C 80 % 1017,1 hPa 0,0 l/m 0 min 0 min 0 W/m 6,4 km/h (2 Bft) 97,83 %
17.10.2018 19:42 17,9 C 16,1 C 16,1 C 80 % 1017,1 hPa 0,0 l/m 0 min 0 min 0 W/m 9,7 km/h (2 Bft) 97,87 %
17.10.2018 19:44 17,8 C 16,1 C 16,1 C 80 % 1017,1 hPa 0,0 l/m 0 min 0 min 0 W/m 6,4 km/h (2 Bft) 97,87 %
17.10.2018 19:46 17,8 C 16,1 C 16,1 C 80 % 1017,2 hPa 0,0 l/m 0 min 0 min 0 W/m 6,4 km/h (2 Bft) 97,96 %
17.10.2018 19:48 17,8 C 16,1 C 15,6 C 80 % 1017,2 hPa 0,0 l/m 0 min 0 min 0 W/m 3,2 km/h (1 Bft) 97,87 %
17.10.2018 19:50 17,7 C 16,1 C 15,6 C 81 % 1017,2 hPa 0,0 l/m 0 min 0 min 0 W/m 3,2 km/h (1 Bft) 95,74 %
17.10.2018 19:52 17,7 C 16,1 C 15,6 C 81 % 1017,2 hPa 0,0 l/m 0 min 0 min 0 W/m 3,2 km/h (1 Bft) 97,92 %
17.10.2018 19:54 17,7 C 16,1 C 15,6 C 81 % 1017,2 hPa 0,0 l/m 0 min 0 min 0 W/m 3,2 km/h (1 Bft) 97,83 %
17.10.2018 19:56 17,7 C 16,1 C 15,6 C 81 % 1017,3 hPa 0,0 l/m 0 min 0 min 0 W/m 6,4 km/h (2 Bft) 100,00 %
17.10.2018 19:58 17,6 C 16,1 C 15,6 C 81 % 1017,4 hPa 0,0 l/m 0 min 0 min 0 W/m 0,0 km/h (0 Bft) 97,87 %
17.10.2018 20:00 17,6 C 15,6 C 15,6 C 81 % 1017,5 hPa 0,0 l/m 0 min 0 min 0 W/m 6,4 km/h (2 Bft) 97,87 %
17.10.2018 20:02 17,6 C 15,6 C 15,6 C 81 % 1017,5 hPa 0,0 l/m 0 min 0 min 0 W/m 0,0 km/h (0 Bft) 97,87 %
17.10.2018 20:04 17,5 C 15,6 C 15,0 C 81 % 1017,5 hPa 0,0 l/m 0 min 0 min 0 W/m 3,2 km/h (1 Bft) 100,00 %
17.10.2018 20:08 17,4 C 15,6 C 15,0 C 81 % 1017,4 hPa 0,0 l/m 0 min 0 min 0 W/m 3,2 km/h (1 Bft) 98,95 %
17.10.2018 20:10 17,4 C 15,6 C 15,0 C 81 % 1017,5 hPa 0,0 l/m 0 min 0 min 0 W/m 3,2 km/h (1 Bft) 97,87 %
17.10.2018 20:12 17,3 C 15,0 C 15,0 C 81 % 1017,5 hPa 0,0 l/m 0 min 0 min 0 W/m 3,2 km/h (1 Bft) 100,00 %
17.10.2018 20:14 17,3 C 15,0 C 15,0 C 82 % 1017,5 hPa 0,0 l/m 0 min 0 min 0 W/m 3,2 km/h (1 Bft) 97,87 %
17.10.2018 20:16 17,2 C 15,0 C 15,0 C 82 % 1017,5 hPa 0,0 l/m 0 min 0 min 0 W/m 3,2 km/h (1 Bft) 100,00 %
17.10.2018 20:18 17,2 C 15,0 C 15,0 C 82 % 1017,4 hPa 0,0 l/m 0 min 0 min 0 W/m 9,7 km/h (2 Bft) 95,74 %
17.10.2018 20:20 17,1 C 15,0 C 15,0 C 82 % 1017,5 hPa 0,0 l/m 0 min 0 min 0 W/m 0,0 km/h (0 Bft) 97,87 %
17.10.2018 20:22 17,1 C 15,0 C 15,0 C 82 % 1017,5 hPa 0,0 l/m 0 min 0 min 0 W/m 6,4 km/h (2 Bft) 97,87 %
17.10.2018 20:24 17,0 C 15,0 C 14,4 C 82 % 1017,5 hPa 0,0 l/m 0 min 0 min 0 W/m 0,0 km/h (0 Bft) 97,87 %
17.10.2018 20:26 17,0 C 15,0 C 14,4 C 83 % 1017,6 hPa 0,0 l/m 0 min 0 min 0 W/m 0,0 km/h (0 Bft) 97,83 %
17.10.2018 20:28 16,9 C 15,0 C 14,4 C 83 % 1017,5 hPa 0,0 l/m 0 min 0 min 0 W/m 0,0 km/h (0 Bft) 97,87 %
17.10.2018 20:30 16,9 C 15,0 C 14,4 C 83 % 1017,5 hPa 0,0 l/m 0 min 0 min 0 W/m 0,0 km/h (0 Bft) 97,87 %
17.10.2018 20:32 16,8 C 15,0 C 14,4 C 83 % 1017,6 hPa 0,0 l/m 0 min 0 min 0 W/m 3,2 km/h (1 Bft) 95,83 %
17.10.2018 20:34 16,8 C 15,0 C 14,4 C 83 % 1017,6 hPa 0,0 l/m 0 min 0 min 0 W/m 6,4 km/h (2 Bft) 95,74 %
17.10.2018 20:38 16,7 C 15,0 C 14,4 C 83 % 1017,6 hPa 0,0 l/m 0 min 0 min 0 W/m 6,4 km/h (2 Bft) 95,70 %
17.10.2018 20:40 16,6 C 15,0 C 15,0 C 84 % 1017,7 hPa 0,0 l/m 0 min 0 min 0 W/m 3,2 km/h (1 Bft) 93,62 %
17.10.2018 20:42 16,6 C 15,0 C 14,4 C 84 % 1017,7 hPa 0,0 l/m 0 min 0 min 0 W/m 3,2 km/h (1 Bft) 95,74 %
17.10.2018 20:44 16,6 C 15,0 C 14,4 C 84 % 1017,7 hPa 0,0 l/m 0 min 0 min 0 W/m 3,2 km/h (1 Bft) 93,62 %
17.10.2018 20:46 16,5 C 14,4 C 14,4 C 84 % 1017,6 hPa 0,0 l/m 0 min 0 min 0 W/m 0,0 km/h (0 Bft) 91,49 %
17.10.2018 20:48 16,5 C 14,4 C 14,4 C 84 % 1017,7 hPa 0,0 l/m 0 min 0 min 0 W/m 0,0 km/h (0 Bft) 95,74 %
17.10.2018 20:50 16,4 C 14,4 C 14,4 C 84 % 1017,8 hPa 0,0 l/m 0 min 0 min 0 W/m 0,0 km/h (0 Bft) 95,65 %
17.10.2018 20:52 16,4 C 14,4 C 14,4 C 84 % 1017,7 hPa 0,0 l/m 0 min 0 min 0 W/m 0,0 km/h (0 Bft) 95,74 %
17.10.2018 20:54 16,3 C 14,4 C 14,4 C 84 % 1017,8 hPa 0,0 l/m 0 min 0 min 0 W/m 0,0 km/h (0 Bft) 95,74 %
17.10.2018 20:56 16,3 C 14,4 C 14,4 C 84 % 1017,8 hPa 0,0 l/m 0 min 0 min 0 W/m 0,0 km/h (0 Bft) 93,62 %
17.10.2018 20:58 16,3 C 14,4 C 14,4 C 84 % 1017,8 hPa 0,0 l/m 0 min 0 min 0 W/m 0,0 km/h (0 Bft) 93,62 %
17.10.2018 21:00 16,2 C 14,4 C 14,4 C 84 % 1017,8 hPa 0,0 l/m 0 min 0 min 0 W/m 0,0 km/h (0 Bft) 95,74 %
17.10.2018 21:02 16,2 C 14,4 C 13,9 C 84 % 1017,8 hPa 0,0 l/m 0 min 0 min 0 W/m 0,0 km/h (0 Bft) 93,75 %
17.10.2018 21:04 16,2 C 14,4 C 13,9 C 84 % 1017,8 hPa 0,0 l/m 0 min 0 min 0 W/m 0,0 km/h (0 Bft) 95,74 %
17.10.2018 21:08 16,1 C 14,4 C 13,9 C 85 % 1017,9 hPa 0,0 l/m 0 min 0 min 0 W/m 0,0 km/h (0 Bft) 97,87 %
17.10.2018 21:10 16,1 C 14,4 C 13,9 C 85 % 1017,8 hPa 0,0 l/m 0 min 0 min 0 W/m 0,0 km/h (0 Bft) 97,87 %
17.10.2018 21:12 16,0 C 14,4 C 13,9 C 85 % 1017,9 hPa 0,0 l/m 0 min 0 min 0 W/m 3,2 km/h (1 Bft) 97,83 %
17.10.2018 21:14 15,9 C 14,4 C 13,9 C 85 % 1017,9 hPa 0,0 l/m 0 min 0 min 0 W/m 0,0 km/h (0 Bft) 95,74 %
17.10.2018 21:16 15,9 C 14,4 C 13,9 C 85 % 1017,9 hPa 0,0 l/m 0 min 0 min 0 W/m 0,0 km/h (0 Bft) 97,87 %
17.10.2018 21:18 15,9 C 14,4 C 13,9 C 85 % 1017,9 hPa 0,0 l/m 0 min 0 min 0 W/m 0,0 km/h (0 Bft) 97,87 %
17.10.2018 21:20 15,8 C 14,4 C 13,9 C 85 % 1018,0 hPa 0,0 l/m 0 min 0 min 0 W/m 3,2 km/h (1 Bft) 100,00 %
17.10.2018 21:22 15,8 C 13,9 C 13,9 C 85 % 1018,0 hPa 0,0 l/m 0 min 0 min 0 W/m 3,2 km/h (1 Bft) 97,87 %
17.10.2018 21:24 15,8 C 13,9 C 13,9 C 85 % 1018,0 hPa 0,0 l/m 0 min 0 min 0 W/m 3,2 km/h (1 Bft) 100,00 %
17.10.2018 21:26 15,7 C 13,9 C 13,9 C 85 % 1018,0 hPa 0,0 l/m 0 min 0 min 0 W/m 0,0 km/h (0 Bft) 100,00 %
17.10.2018 21:28 15,7 C 13,9 C 13,9 C 85 % 1018,0 hPa 0,0 l/m 0 min 0 min 0 W/m 0,0 km/h (0 Bft) 100,00 %
17.10.2018 21:30 15,7 C 13,9 C 13,9 C 86 % 1018,1 hPa 0,0 l/m 0 min 0 min 0 W/m 3,2 km/h (1 Bft) 100,00 %
17.10.2018 21:32 15,6 C 13,9 C 13,9 C 85 % 1018,1 hPa 0,0 l/m 0 min 0 min 0 W/m 0,0 km/h (0 Bft) 97,87 %
17.10.2018 21:34 15,6 C 13,9 C 13,9 C 86 % 1018,1 hPa 0,0 l/m 0 min 0 min 0 W/m 0,0 km/h (0 Bft) 100,00 %
17.10.2018 21:38 15,6 C 13,9 C 13,9 C 86 % 1018,1 hPa 0,0 l/m 0 min 0 min 0 W/m 3,2 km/h (1 Bft) 98,92 %
17.10.2018 21:40 15,5 C 13,9 C 13,9 C 86 % 1018,1 hPa 0,0 l/m 0 min 0 min 0 W/m 0,0 km/h (0 Bft) 97,87 %
17.10.2018 21:42 15,4 C 13,9 C 13,9 C 86 % 1018,2 hPa 0,0 l/m 0 min 0 min 0 W/m 0,0 km/h (0 Bft) 100,00 %
17.10.2018 21:44 15,4 C 13,9 C 13,9 C 86 % 1018,2 hPa 0,0 l/m 0 min 0 min 0 W/m 0,0 km/h (0 Bft) 100,00 %
17.10.2018 21:46 15,4 C 13,9 C 13,9 C 86 % 1018,2 hPa 0,0 l/m 0 min 0 min 0 W/m 0,0 km/h (0 Bft) 100,00 %
17.10.2018 21:48 15,4 C 13,9 C 13,9 C 86 % 1018,2 hPa 0,0 l/m 0 min 0 min 0 W/m 3,2 km/h (1 Bft) 100,00 %
17.10.2018 21:50 15,3 C 13,9 C 13,9 C 86 % 1018,1 hPa 0,0 l/m 0 min 0 min 0 W/m 0,0 km/h (0 Bft) 100,00 %
17.10.2018 21:52 15,3 C 13,9 C 13,9 C 86 % 1018,2 hPa 0,0 l/m 0 min 0 min 0 W/m 0,0 km/h (0 Bft) 100,00 %
17.10.2018 21:54 15,3 C 13,9 C 13,9 C 86 % 1018,2 hPa 0,0 l/m 0 min 0 min 0 W/m 0,0 km/h (0 Bft) 100,00 %
17.10.2018 21:56 15,3 C 13,9 C 13,3 C 86 % 1018,2 hPa 0,0 l/m 0 min 0 min 0 W/m 0,0 km/h (0 Bft) 97,87 %
17.10.2018 21:58 15,2 C 13,9 C 13,3 C 86 % 1018,2 hPa 0,0 l/m 0 min 0 min 0 W/m 0,0 km/h (0 Bft) 100,00 %
17.10.2018 22:00 15,2 C 13,3 C 13,3 C 86 % 1018,2 hPa 0,0 l/m 0 min 0 min 0 W/m 0,0 km/h (0 Bft) 100,00 %
17.10.2018 22:02 15,2 C 13,3 C 13,3 C 86 % 1018,2 hPa 0,0 l/m 0 min 0 min 0 W/m 0,0 km/h (0 Bft) 100,00 %
17.10.2018 22:04 15,1 C 13,3 C 13,3 C 86 % 1018,3 hPa 0,0 l/m 0 min 0 min 0 W/m 0,0 km/h (0 Bft) 97,87 %
17.10.2018 22:08 15,1 C 13,3 C 13,3 C 87 % 1018,2 hPa 0,0 l/m 0 min 0 min 0 W/m 0,0 km/h (0 Bft) 100,00 %
17.10.2018 22:10 15,1 C 13,3 C 13,3 C 87 % 1018,2 hPa 0,0 l/m 0 min 0 min 0 W/m 0,0 km/h (0 Bft) 100,00 %
17.10.2018 22:12 15,0 C 13,3 C 13,3 C 87 % 1018,3 hPa 0,0 l/m 0 min 0 min 0 W/m 3,2 km/h (1 Bft) 100,00 %
17.10.2018 22:14 14,9 C 13,3 C 13,3 C 87 % 1018,2 hPa 0,0 l/m 0 min 0 min 0 W/m 0,0 km/h (0 Bft) 100,00 %
17.10.2018 22:16 14,9 C 13,3 C 13,3 C 87 % 1018,3 hPa 0,0 l/m 0 min 0 min 0 W/m 0,0 km/h (0 Bft) 100,00 %
17.10.2018 22:18 14,9 C 13,3 C 13,3 C 87 % 1018,2 hPa 0,0 l/m 0 min 0 min 0 W/m 0,0 km/h (0 Bft) 100,00 %
17.10.2018 22:20 14,9 C 13,3 C 13,3 C 87 % 1018,3 hPa 0,0 l/m 0 min 0 min 0 W/m 0,0 km/h (0 Bft) 100,00 %
17.10.2018 22:22 14,8 C 13,3 C 13,3 C 87 % 1018,3 hPa 0,0 l/m 0 min 0 min 0 W/m 0,0 km/h (0 Bft) 97,14 %
17.10.2018 22:24 14,8 C 13,3 C 13,3 C 87 % 1018,3 hPa 0,0 l/m 0 min 0 min 0 W/m 0,0 km/h (0 Bft) 97,87 %
17.10.2018 22:26 14,8 C 13,3 C 13,3 C 87 % 1018,3 hPa 0,0 l/m 0 min 0 min 0 W/m 0,0 km/h (0 Bft) 100,00 %
17.10.2018 22:28 14,8 C 13,3 C 13,3 C 87 % 1018,3 hPa 0,0 l/m 0 min 0 min 0 W/m 0,0 km/h (0 Bft) 100,00 %
17.10.2018 22:30 14,7 C 13,3 C 13,3 C 87 % 1018,3 hPa 0,0 l/m 0 min 0 min 0 W/m 0,0 km/h (0 Bft) 100,00 %
17.10.2018 22:32 14,7 C 13,3 C 13,3 C 87 % 1018,4 hPa 0,0 l/m 0 min 0 min 0 W/m 0,0 km/h (0 Bft) 100,00 %
17.10.2018 22:34 14,7 C 13,3 C 13,3 C 88 % 1018,4 hPa 0,0 l/m 0 min 0 min 0 W/m 0,0 km/h (0 Bft) 100,00 %
17.10.2018 22:38 14,6 C 13,3 C 13,3 C 87 % 1018,3 hPa 0,0 l/m 0 min 0 min 0 W/m 0,0 km/h (0 Bft) 98,94 %
17.10.2018 22:40 14,6 C 13,3 C 13,3 C 87 % 1018,4 hPa 0,0 l/m 0 min 0 min 0 W/m 0,0 km/h (0 Bft) 100,00 %
17.10.2018 22:42 14,6 C 13,3 C 13,3 C 88 % 1018,4 hPa 0,0 l/m 0 min 0 min 0 W/m 0,0 km/h (0 Bft) 100,00 %
17.10.2018 22:44 14,6 C 13,3 C 13,3 C 88 % 1018,4 hPa 0,0 l/m 0 min 0 min 0 W/m 0,0 km/h (0 Bft) 100,00 %
17.10.2018 22:46 14,5 C 13,3 C 13,3 C 88 % 1018,4 hPa 0,0 l/m 0 min 0 min 0 W/m 0,0 km/h (0 Bft) 97,87 %
17.10.2018 22:48 14,5 C 12,8 C 12,8 C 88 % 1018,4 hPa 0,0 l/m 0 min 0 min 0 W/m 0,0 km/h (0 Bft) 100,00 %
17.10.2018 22:50 14,4 C 12,8 C 12,8 C 88 % 1018,4 hPa 0,0 l/m 0 min 0 min 0 W/m 0,0 km/h (0 Bft) 96,55 %
17.10.2018 22:52 14,4 C 12,8 C 12,8 C 88 % 1018,4 hPa 0,0 l/m 0 min 0 min 0 W/m 0,0 km/h (0 Bft) 94,44 %
17.10.2018 22:54 14,4 C 12,8 C 12,8 C 88 % 1018,4 hPa 0,0 l/m 0 min 0 min 0 W/m 0,0 km/h (0 Bft) 93,62 %
17.10.2018 22:56 14,3 C 12,8 C 12,8 C 88 % 1018,4 hPa 0,0 l/m 0 min 0 min 0 W/m 0,0 km/h (0 Bft) 95,74 %
17.10.2018 22:58 14,3 C 12,8 C 12,8 C 88 % 1018,4 hPa 0,0 l/m 0 min 0 min 0 W/m 0,0 km/h (0 Bft) 95,74 %
17.10.2018 23:00 14,3 C 12,8 C 12,8 C 88 % 1018,4 hPa 0,0 l/m 0 min 0 min 0 W/m 0,0 km/h (0 Bft) 93,62 %
17.10.2018 23:02 14,2 C 12,8 C 12,8 C 88 % 1018,4 hPa 0,0 l/m 0 min 0 min 0 W/m 0,0 km/h (0 Bft) 95,74 %
17.10.2018 23:04 14,2 C 12,8 C 12,8 C 88 % 1018,4 hPa 0,0 l/m 0 min 0 min 0 W/m 0,0 km/h (0 Bft) 95,65 %
17.10.2018 23:08 14,2 C 12,8 C 12,8 C 88 % 1018,5 hPa 0,0 l/m 0 min 0 min 0 W/m 0,0 km/h (0 Bft) 95,79 %
17.10.2018 23:10 14,2 C 12,8 C 12,8 C 88 % 1018,5 hPa 0,0 l/m 0 min 0 min 0 W/m 0,0 km/h (0 Bft) 95,74 %
17.10.2018 23:12 14,2 C 12,8 C 12,8 C 89 % 1018,6 hPa 0,0 l/m 0 min 0 min 0 W/m 3,2 km/h (1 Bft) 95,65 %
17.10.2018 23:14 14,2 C 12,8 C 12,8 C 89 % 1018,5 hPa 0,0 l/m 0 min 0 min 0 W/m 0,0 km/h (0 Bft) 95,74 %
17.10.2018 23:16 14,2 C 12,8 C 12,8 C 89 % 1018,6 hPa 0,0 l/m 0 min 0 min 0 W/m 3,2 km/h (1 Bft) 95,74 %
17.10.2018 23:18 14,2 C 12,8 C 12,8 C 89 % 1018,6 hPa 0,0 l/m 0 min 0 min 0 W/m 0,0 km/h (0 Bft) 95,74 %
17.10.2018 23:20 14,2 C 12,8 C 12,8 C 89 % 1018,6 hPa 0,0 l/m 0 min 0 min 0 W/m 3,2 km/h (1 Bft) 97,87 %
17.10.2018 23:22 14,2 C 12,8 C 12,8 C 89 % 1018,6 hPa 0,0 l/m 0 min 0 min 0 W/m 0,0 km/h (0 Bft) 95,74 %
17.10.2018 23:24 14,1 C 12,8 C 12,8 C 89 % 1018,6 hPa 0,0 l/m 0 min 0 min 0 W/m 3,2 km/h (1 Bft) 95,65 %
17.10.2018 23:26 14,2 C 12,8 C 12,8 C 90 % 1018,7 hPa 0,0 l/m 0 min 0 min 0 W/m 3,2 km/h (1 Bft) 95,74 %
17.10.2018 23:28 14,1 C 12,8 C 12,8 C 89 % 1018,7 hPa 0,0 l/m 0 min 0 min 0 W/m 0,0 km/h (0 Bft) 95,74 %
17.10.2018 23:30 14,1 C 12,8 C 12,8 C 90 % 1018,6 hPa 0,0 l/m 0 min 0 min 0 W/m 3,2 km/h (1 Bft) 95,74 %
17.10.2018 23:32 14,1 C 12,8 C 12,8 C 90 % 1018,6 hPa 0,0 l/m 0 min 0 min 0 W/m 3,2 km/h (1 Bft) 95,83 %
17.10.2018 23:34 14,1 C 12,8 C 12,8 C 90 % 1018,6 hPa 0,0 l/m 0 min 0 min 0 W/m 3,2 km/h (1 Bft) 93,48 %
17.10.2018 23:38 14,0 C 12,8 C 12,8 C 90 % 1018,7 hPa 0,0 l/m 0 min 0 min 0 W/m 3,2 km/h (1 Bft) 94,68 %
17.10.2018 23:40 14,0 C 12,8 C 12,8 C 90 % 1018,8 hPa 0,0 l/m 0 min 0 min 0 W/m 3,2 km/h (1 Bft) 95,74 %
17.10.2018 23:42 14,0 C 12,8 C 12,8 C 90 % 1018,8 hPa 0,0 l/m 0 min 0 min 0 W/m 0,0 km/h (0 Bft) 95,74 %
17.10.2018 23:44 13,9 C 12,8 C 12,8 C 91 % 1018,8 hPa 0,0 l/m 0 min 0 min 0 W/m 3,2 km/h (1 Bft) 95,74 %
17.10.2018 23:46 13,9 C 12,8 C 12,8 C 91 % 1018,7 hPa 0,0 l/m 0 min 0 min 0 W/m 3,2 km/h (1 Bft) 95,65 %
17.10.2018 23:48 13,9 C 12,8 C 12,8 C 91 % 1018,7 hPa 0,0 l/m 0 min 0 min 0 W/m 0,0 km/h (0 Bft) 95,74 %
17.10.2018 23:50 13,9 C 12,8 C 12,8 C 91 % 1018,8 hPa 0,0 l/m 0 min 0 min 0 W/m 3,2 km/h (1 Bft) 95,74 %
17.10.2018 23:52 13,9 C 12,8 C 12,8 C 91 % 1018,8 hPa 0,0 l/m 0 min 0 min 0 W/m 3,2 km/h (1 Bft) 93,62 %
17.10.2018 23:54 13,9 C 12,8 C 12,8 C 91 % 1018,7 hPa 0,0 l/m 0 min 0 min 0 W/m 0,0 km/h (0 Bft) 93,62 %
17.10.2018 23:56 13,9 C 12,8 C 12,8 C 91 % 1018,8 hPa 0,0 l/m 0 min 0 min 0 W/m 0,0 km/h (0 Bft) 95,74 %
17.10.2018 23:58 13,8 C 12,8 C 12,8 C 91 % 1018,8 hPa 0,0 l/m 0 min 0 min 0 W/m 0,0 km/h (0 Bft) 93,48 %
_ Min-Zeit 07:42 06:16 06:08 15:20 04:18 - - - - 05:14 00:02
Minimum _ 12,1 C 11,1 C 11,1 C 63 % 1015,7 hPa - - - - 0,0 km/h (0 Bft) 88,89 %
_ Max-Zeit 16:10 12:02 16:08 09:48 23:40 00:00 12:08 00:00 13:30 02:26 00:22
Maximum _ 21,8 C 27,8 C 19,4 C 94 % 1018,8 hPa 0,0 l/m 4 min 0 min 427 W/m 16,1 km/h
SO (3 Bft)
100,00 %
Durchschnitt _ 16,3 C 16,3 C 14,4 C 81 % 1016,8 hPa #0,0 l/m #3:50 h #0 min. 164 W/m 4,8 km/h (1 Bft) 97,49 %
© 2018 W. Hausmann